<?xml version="1.0" encoding="UTF-8" standalone="no" ?>
<gpx xmlns="http://www.topografix.com/GPX/1/1" xmlns:xsi="http://www.w3.org/2001/XMLSchema-instance" xsi:schemaLocation="http://www.topografix.com/GPX/1/1 http://www.topografix.com/GPX/1/1/gpx.xsd" version="1.1" creator="VisuGPX - https://www.visugpx.com">
  <metadata>
    <name>village de Listo depuis le village de Louvie Soubiron - vallée d'Ossau (64)</name>
    <desc><![CDATA[A partir du village de Louvie Soubiron]]></desc>
  </metadata>
  <wpt lat="42.99622" lon="-0.39074">
    <ele>-0.11438</ele>
    <name><![CDATA[Listo]]></name>
  </wpt>
  <wpt lat="43.0006" lon="-0.37967">
    <ele>-0.11438</ele>
    <name><![CDATA[Pic Listo-]]></name>
    <desc><![CDATA[Chemin]]></desc>
  </wpt>
  <trk>
    <name><![CDATA[ACTIVE LOG 001]]></name>
    <trkseg>
      <trkpt lat="42.99929" lon="-0.41455">
        <ele>553.856689</ele>
        <time>2011-11-20T09:48:29Z</time>
      </trkpt>
      <trkpt lat="42.99929" lon="-0.41455">
        <ele>553.856689</ele>
        <time>2011-11-20T09:48:30Z</time>
      </trkpt>
      <trkpt lat="42.99929" lon="-0.41455">
        <ele>554.337402</ele>
        <time>2011-11-20T09:48:31Z</time>
      </trkpt>
      <trkpt lat="42.99927" lon="-0.41454">
        <ele>552.895264</ele>
        <time>2011-11-20T09:48:40Z</time>
      </trkpt>
      <trkpt lat="42.99928" lon="-0.41456">
        <ele>554.817871</ele>
        <time>2011-11-20T09:48:43Z</time>
      </trkpt>
      <trkpt lat="42.99927" lon="-0.41453">
        <ele>552.414551</ele>
        <time>2011-11-20T09:49:04Z</time>
      </trkpt>
      <trkpt lat="42.99926" lon="-0.41453">
        <ele>555.298584</ele>
        <time>2011-11-20T09:49:06Z</time>
      </trkpt>
      <trkpt lat="42.9992" lon="-0.41452">
        <ele>556.26001</ele>
        <time>2011-11-20T09:49:25Z</time>
      </trkpt>
      <trkpt lat="42.99909" lon="-0.41447">
        <ele>556.26001</ele>
        <time>2011-11-20T09:49:42Z</time>
      </trkpt>
      <trkpt lat="42.99909" lon="-0.41442">
        <ele>557.221436</ele>
        <time>2011-11-20T09:49:50Z</time>
      </trkpt>
      <trkpt lat="42.99909" lon="-0.41421">
        <ele>560.105225</ele>
        <time>2011-11-20T09:50:06Z</time>
      </trkpt>
      <trkpt lat="42.99909" lon="-0.41399">
        <ele>562.989258</ele>
        <time>2011-11-20T09:50:23Z</time>
      </trkpt>
      <trkpt lat="42.99915" lon="-0.41396">
        <ele>563.950439</ele>
        <time>2011-11-20T09:50:29Z</time>
      </trkpt>
      <trkpt lat="42.99923" lon="-0.41393">
        <ele>565.873291</ele>
        <time>2011-11-20T09:50:45Z</time>
      </trkpt>
      <trkpt lat="42.99921" lon="-0.41395">
        <ele>565.392578</ele>
        <time>2011-11-20T09:51:01Z</time>
      </trkpt>
      <trkpt lat="42.99925" lon="-0.41395">
        <ele>566.35376</ele>
        <time>2011-11-20T09:51:08Z</time>
      </trkpt>
      <trkpt lat="42.99937" lon="-0.41386">
        <ele>568.276367</ele>
        <time>2011-11-20T09:51:24Z</time>
      </trkpt>
      <trkpt lat="42.99949" lon="-0.41373">
        <ele>571.1604</ele>
        <time>2011-11-20T09:51:41Z</time>
      </trkpt>
      <trkpt lat="42.99951" lon="-0.41372">
        <ele>571.1604</ele>
        <time>2011-11-20T09:51:43Z</time>
      </trkpt>
      <trkpt lat="42.99959" lon="-0.41374">
        <ele>573.083252</ele>
        <time>2011-11-20T09:51:50Z</time>
      </trkpt>
      <trkpt lat="42.99968" lon="-0.41389">
        <ele>575.486328</ele>
        <time>2011-11-20T09:52:04Z</time>
      </trkpt>
      <trkpt lat="42.99971" lon="-0.41398">
        <ele>575.486328</ele>
        <time>2011-11-20T09:52:10Z</time>
      </trkpt>
      <trkpt lat="42.99977" lon="-0.41416">
        <ele>578.370361</ele>
        <time>2011-11-20T09:52:24Z</time>
      </trkpt>
      <trkpt lat="42.99982" lon="-0.41433">
        <ele>580.292969</ele>
        <time>2011-11-20T09:52:40Z</time>
      </trkpt>
      <trkpt lat="42.99988" lon="-0.41443">
        <ele>584.138184</ele>
        <time>2011-11-20T09:52:51Z</time>
      </trkpt>
      <trkpt lat="42.9999" lon="-0.41446">
        <ele>584.618896</ele>
        <time>2011-11-20T09:52:54Z</time>
      </trkpt>
      <trkpt lat="42.99998" lon="-0.41455">
        <ele>585.099609</ele>
        <time>2011-11-20T09:53:11Z</time>
      </trkpt>
      <trkpt lat="43.00008" lon="-0.41466">
        <ele>588.945068</ele>
        <time>2011-11-20T09:53:25Z</time>
      </trkpt>
      <trkpt lat="43.0002" lon="-0.41479">
        <ele>591.828857</ele>
        <time>2011-11-20T09:53:42Z</time>
      </trkpt>
      <trkpt lat="43.00024" lon="-0.41485">
        <ele>595.193359</ele>
        <time>2011-11-20T09:53:49Z</time>
      </trkpt>
      <trkpt lat="43.00024" lon="-0.41485">
        <ele>594.712646</ele>
        <time>2011-11-20T09:53:50Z</time>
      </trkpt>
      <trkpt lat="43.00029" lon="-0.41493">
        <ele>596.154785</ele>
        <time>2011-11-20T09:54:11Z</time>
      </trkpt>
      <trkpt lat="43.0004" lon="-0.41498">
        <ele>599.519287</ele>
        <time>2011-11-20T09:54:22Z</time>
      </trkpt>
      <trkpt lat="43.00042" lon="-0.41497">
        <ele>599.519287</ele>
        <time>2011-11-20T09:54:24Z</time>
      </trkpt>
      <trkpt lat="43.00044" lon="-0.41484">
        <ele>602.403076</ele>
        <time>2011-11-20T09:54:36Z</time>
      </trkpt>
      <trkpt lat="43.00044" lon="-0.41477">
        <ele>603.845215</ele>
        <time>2011-11-20T09:54:42Z</time>
      </trkpt>
      <trkpt lat="43.00044" lon="-0.41475">
        <ele>604.326172</ele>
        <time>2011-11-20T09:54:43Z</time>
      </trkpt>
      <trkpt lat="43.00046" lon="-0.41467">
        <ele>605.768066</ele>
        <time>2011-11-20T09:54:49Z</time>
      </trkpt>
      <trkpt lat="43.00049" lon="-0.41444">
        <ele>607.690674</ele>
        <time>2011-11-20T09:55:07Z</time>
      </trkpt>
      <trkpt lat="43.00052" lon="-0.41417">
        <ele>608.651855</ele>
        <time>2011-11-20T09:55:27Z</time>
      </trkpt>
      <trkpt lat="43.00068" lon="-0.41402">
        <ele>609.613281</ele>
        <time>2011-11-20T09:55:43Z</time>
      </trkpt>
      <trkpt lat="43.00069" lon="-0.41372">
        <ele>610.574463</ele>
        <time>2011-11-20T09:56:02Z</time>
      </trkpt>
      <trkpt lat="43.00063" lon="-0.4136">
        <ele>611.535889</ele>
        <time>2011-11-20T09:56:16Z</time>
      </trkpt>
      <trkpt lat="43.00062" lon="-0.41356">
        <ele>611.535889</ele>
        <time>2011-11-20T09:56:28Z</time>
      </trkpt>
      <trkpt lat="43.00062" lon="-0.41353">
        <ele>612.016602</ele>
        <time>2011-11-20T09:56:39Z</time>
      </trkpt>
      <trkpt lat="43.0006" lon="-0.41347">
        <ele>612.977783</ele>
        <time>2011-11-20T09:56:43Z</time>
      </trkpt>
      <trkpt lat="43.0006" lon="-0.41337">
        <ele>614.419678</ele>
        <time>2011-11-20T09:56:50Z</time>
      </trkpt>
      <trkpt lat="43.00052" lon="-0.41315">
        <ele>617.78418</ele>
        <time>2011-11-20T09:57:07Z</time>
      </trkpt>
      <trkpt lat="43.00048" lon="-0.41301">
        <ele>621.14917</ele>
        <time>2011-11-20T09:57:19Z</time>
      </trkpt>
      <trkpt lat="43.00047" lon="-0.41294">
        <ele>623.55249</ele>
        <time>2011-11-20T09:57:25Z</time>
      </trkpt>
      <trkpt lat="43.0004" lon="-0.41274">
        <ele>625.955566</ele>
        <time>2011-11-20T09:57:42Z</time>
      </trkpt>
      <trkpt lat="43.00033" lon="-0.41256">
        <ele>629.320068</ele>
        <time>2011-11-20T09:57:56Z</time>
      </trkpt>
      <trkpt lat="43.00027" lon="-0.41243">
        <ele>630.281494</ele>
        <time>2011-11-20T09:58:08Z</time>
      </trkpt>
      <trkpt lat="43.00022" lon="-0.41226">
        <ele>633.165283</ele>
        <time>2011-11-20T09:58:20Z</time>
      </trkpt>
      <trkpt lat="43.00021" lon="-0.41223">
        <ele>633.645996</ele>
        <time>2011-11-20T09:58:22Z</time>
      </trkpt>
      <trkpt lat="43.00012" lon="-0.41214">
        <ele>635.088135</ele>
        <time>2011-11-20T09:58:33Z</time>
      </trkpt>
      <trkpt lat="42.99997" lon="-0.41202">
        <ele>637.491455</ele>
        <time>2011-11-20T09:58:50Z</time>
      </trkpt>
      <trkpt lat="42.99995" lon="-0.41198">
        <ele>638.452881</ele>
        <time>2011-11-20T09:58:54Z</time>
      </trkpt>
      <trkpt lat="42.99992" lon="-0.41184">
        <ele>640.855957</ele>
        <time>2011-11-20T09:59:04Z</time>
      </trkpt>
      <trkpt lat="42.99977" lon="-0.41161">
        <ele>644.220703</ele>
        <time>2011-11-20T09:59:26Z</time>
      </trkpt>
      <trkpt lat="42.99965" lon="-0.41145">
        <ele>647.585205</ele>
        <time>2011-11-20T09:59:43Z</time>
      </trkpt>
      <trkpt lat="42.99958" lon="-0.41133">
        <ele>650.949707</ele>
        <time>2011-11-20T09:59:56Z</time>
      </trkpt>
      <trkpt lat="42.99957" lon="-0.41119">
        <ele>653.833984</ele>
        <time>2011-11-20T10:00:10Z</time>
      </trkpt>
      <trkpt lat="42.9996" lon="-0.4111">
        <ele>654.795166</ele>
        <time>2011-11-20T10:00:19Z</time>
      </trkpt>
      <trkpt lat="42.99967" lon="-0.41096">
        <ele>658.640381</ele>
        <time>2011-11-20T10:00:32Z</time>
      </trkpt>
      <trkpt lat="42.99967" lon="-0.41094">
        <ele>659.121094</ele>
        <time>2011-11-20T10:00:33Z</time>
      </trkpt>
      <trkpt lat="42.99967" lon="-0.4109">
        <ele>659.601807</ele>
        <time>2011-11-20T10:00:36Z</time>
      </trkpt>
      <trkpt lat="42.99959" lon="-0.41072">
        <ele>662.005127</ele>
        <time>2011-11-20T10:00:53Z</time>
      </trkpt>
      <trkpt lat="42.99949" lon="-0.41053">
        <ele>664.888916</ele>
        <time>2011-11-20T10:01:13Z</time>
      </trkpt>
      <trkpt lat="42.99942" lon="-0.4104">
        <ele>667.772705</ele>
        <time>2011-11-20T10:01:26Z</time>
      </trkpt>
      <trkpt lat="42.99939" lon="-0.41028">
        <ele>671.137695</ele>
        <time>2011-11-20T10:01:39Z</time>
      </trkpt>
      <trkpt lat="42.99937" lon="-0.41017">
        <ele>673.541016</ele>
        <time>2011-11-20T10:01:51Z</time>
      </trkpt>
      <trkpt lat="42.99931" lon="-0.41007">
        <ele>676.424805</ele>
        <time>2011-11-20T10:02:03Z</time>
      </trkpt>
      <trkpt lat="42.99921" lon="-0.41">
        <ele>678.828125</ele>
        <time>2011-11-20T10:02:14Z</time>
      </trkpt>
      <trkpt lat="42.99901" lon="-0.41">
        <ele>682.67334</ele>
        <time>2011-11-20T10:02:34Z</time>
      </trkpt>
      <trkpt lat="42.99888" lon="-0.41003">
        <ele>685.076904</ele>
        <time>2011-11-20T10:02:49Z</time>
      </trkpt>
      <trkpt lat="42.99893" lon="-0.40995">
        <ele>686.518799</ele>
        <time>2011-11-20T10:02:58Z</time>
      </trkpt>
      <trkpt lat="42.99904" lon="-0.40981">
        <ele>688.922119</ele>
        <time>2011-11-20T10:03:14Z</time>
      </trkpt>
      <trkpt lat="42.99913" lon="-0.40974">
        <ele>689.883301</ele>
        <time>2011-11-20T10:03:27Z</time>
      </trkpt>
      <trkpt lat="42.99916" lon="-0.40972">
        <ele>690.364014</ele>
        <time>2011-11-20T10:03:32Z</time>
      </trkpt>
      <trkpt lat="42.99919" lon="-0.40973">
        <ele>691.325195</ele>
        <time>2011-11-20T10:03:36Z</time>
      </trkpt>
      <trkpt lat="42.99937" lon="-0.40975">
        <ele>692.286621</ele>
        <time>2011-11-20T10:03:52Z</time>
      </trkpt>
      <trkpt lat="42.99947" lon="-0.40972">
        <ele>694.689697</ele>
        <time>2011-11-20T10:04:05Z</time>
      </trkpt>
      <trkpt lat="42.99944" lon="-0.40961">
        <ele>698.054443</ele>
        <time>2011-11-20T10:04:24Z</time>
      </trkpt>
      <trkpt lat="42.99935" lon="-0.40958">
        <ele>700.938477</ele>
        <time>2011-11-20T10:04:37Z</time>
      </trkpt>
      <trkpt lat="42.99925" lon="-0.40955">
        <ele>703.341797</ele>
        <time>2011-11-20T10:04:48Z</time>
      </trkpt>
      <trkpt lat="42.99914" lon="-0.40949">
        <ele>706.225586</ele>
        <time>2011-11-20T10:05:02Z</time>
      </trkpt>
      <trkpt lat="42.999" lon="-0.40939">
        <ele>708.628906</ele>
        <time>2011-11-20T10:05:18Z</time>
      </trkpt>
      <trkpt lat="42.99889" lon="-0.40934">
        <ele>710.551514</ele>
        <time>2011-11-20T10:05:30Z</time>
      </trkpt>
      <trkpt lat="42.99883" lon="-0.40932">
        <ele>711.993652</ele>
        <time>2011-11-20T10:05:37Z</time>
      </trkpt>
      <trkpt lat="42.9988" lon="-0.40931">
        <ele>713.435547</ele>
        <time>2011-11-20T10:05:40Z</time>
      </trkpt>
      <trkpt lat="42.99868" lon="-0.40926">
        <ele>716.800293</ele>
        <time>2011-11-20T10:05:53Z</time>
      </trkpt>
      <trkpt lat="42.99868" lon="-0.40926">
        <ele>717.281006</ele>
        <time>2011-11-20T10:05:54Z</time>
      </trkpt>
      <trkpt lat="42.99853" lon="-0.40922">
        <ele>719.203613</ele>
        <time>2011-11-20T10:06:10Z</time>
      </trkpt>
      <trkpt lat="42.99842" lon="-0.40919">
        <ele>722.087402</ele>
        <time>2011-11-20T10:06:23Z</time>
      </trkpt>
      <trkpt lat="42.99831" lon="-0.40914">
        <ele>725.451904</ele>
        <time>2011-11-20T10:06:35Z</time>
      </trkpt>
      <trkpt lat="42.99817" lon="-0.40906">
        <ele>728.81665</ele>
        <time>2011-11-20T10:06:53Z</time>
      </trkpt>
      <trkpt lat="42.99806" lon="-0.40898">
        <ele>732.181396</ele>
        <time>2011-11-20T10:07:06Z</time>
      </trkpt>
      <trkpt lat="42.99804" lon="-0.40897">
        <ele>732.181396</ele>
        <time>2011-11-20T10:07:08Z</time>
      </trkpt>
      <trkpt lat="42.99787" lon="-0.40877">
        <ele>734.584717</ele>
        <time>2011-11-20T10:07:29Z</time>
      </trkpt>
      <trkpt lat="42.99782" lon="-0.40875">
        <ele>734.584717</ele>
        <time>2011-11-20T10:07:46Z</time>
      </trkpt>
      <trkpt lat="42.9978" lon="-0.40874">
        <ele>736.507324</ele>
        <time>2011-11-20T10:10:18Z</time>
      </trkpt>
      <trkpt lat="42.99779" lon="-0.40872">
        <ele>736.507324</ele>
        <time>2011-11-20T10:10:20Z</time>
      </trkpt>
      <trkpt lat="42.9978" lon="-0.40864">
        <ele>736.507324</ele>
        <time>2011-11-20T10:10:26Z</time>
      </trkpt>
      <trkpt lat="42.99771" lon="-0.40833">
        <ele>737.468506</ele>
        <time>2011-11-20T10:10:46Z</time>
      </trkpt>
      <trkpt lat="42.99763" lon="-0.408">
        <ele>738.910645</ele>
        <time>2011-11-20T10:11:06Z</time>
      </trkpt>
      <trkpt lat="42.99755" lon="-0.40767">
        <ele>739.391113</ele>
        <time>2011-11-20T10:11:25Z</time>
      </trkpt>
      <trkpt lat="42.99741" lon="-0.4073">
        <ele>739.391113</ele>
        <time>2011-11-20T10:11:49Z</time>
      </trkpt>
      <trkpt lat="42.99731" lon="-0.40691">
        <ele>738.910645</ele>
        <time>2011-11-20T10:12:12Z</time>
      </trkpt>
      <trkpt lat="42.9972" lon="-0.40658">
        <ele>735.545898</ele>
        <time>2011-11-20T10:12:34Z</time>
      </trkpt>
      <trkpt lat="42.99715" lon="-0.40624">
        <ele>733.142578</ele>
        <time>2011-11-20T10:12:54Z</time>
      </trkpt>
      <trkpt lat="42.99714" lon="-0.40582">
        <ele>732.662109</ele>
        <time>2011-11-20T10:13:19Z</time>
      </trkpt>
      <trkpt lat="42.99711" lon="-0.40559">
        <ele>732.662109</ele>
        <time>2011-11-20T10:13:33Z</time>
      </trkpt>
      <trkpt lat="42.99704" lon="-0.4052">
        <ele>732.181396</ele>
        <time>2011-11-20T10:13:55Z</time>
      </trkpt>
      <trkpt lat="42.99695" lon="-0.40485">
        <ele>733.623291</ele>
        <time>2011-11-20T10:14:15Z</time>
      </trkpt>
      <trkpt lat="42.99686" lon="-0.40451">
        <ele>733.623291</ele>
        <time>2011-11-20T10:14:35Z</time>
      </trkpt>
      <trkpt lat="42.99677" lon="-0.40407">
        <ele>733.623291</ele>
        <time>2011-11-20T10:14:59Z</time>
      </trkpt>
      <trkpt lat="42.99671" lon="-0.40376">
        <ele>736.987793</ele>
        <time>2011-11-20T10:15:19Z</time>
      </trkpt>
      <trkpt lat="42.99669" lon="-0.40368">
        <ele>736.987793</ele>
        <time>2011-11-20T10:15:24Z</time>
      </trkpt>
      <trkpt lat="42.99668" lon="-0.40362">
        <ele>737.468506</ele>
        <time>2011-11-20T10:15:28Z</time>
      </trkpt>
      <trkpt lat="42.99668" lon="-0.40354">
        <ele>739.871826</ele>
        <time>2011-11-20T10:15:33Z</time>
      </trkpt>
      <trkpt lat="42.99669" lon="-0.40339">
        <ele>740.833008</ele>
        <time>2011-11-20T10:15:43Z</time>
      </trkpt>
      <trkpt lat="42.99664" lon="-0.40311">
        <ele>744.197754</ele>
        <time>2011-11-20T10:16:01Z</time>
      </trkpt>
      <trkpt lat="42.99651" lon="-0.40293">
        <ele>746.601074</ele>
        <time>2011-11-20T10:16:18Z</time>
      </trkpt>
      <trkpt lat="42.99634" lon="-0.40272">
        <ele>748.043213</ele>
        <time>2011-11-20T10:16:36Z</time>
      </trkpt>
      <trkpt lat="42.99614" lon="-0.40235">
        <ele>750.446533</ele>
        <time>2011-11-20T10:17:03Z</time>
      </trkpt>
      <trkpt lat="42.99602" lon="-0.40206">
        <ele>752.849609</ele>
        <time>2011-11-20T10:17:23Z</time>
      </trkpt>
      <trkpt lat="42.99587" lon="-0.40176">
        <ele>755.25293</ele>
        <time>2011-11-20T10:17:44Z</time>
      </trkpt>
      <trkpt lat="42.99574" lon="-0.40143">
        <ele>756.694824</ele>
        <time>2011-11-20T10:18:07Z</time>
      </trkpt>
      <trkpt lat="42.99568" lon="-0.40113">
        <ele>759.578857</ele>
        <time>2011-11-20T10:18:26Z</time>
      </trkpt>
      <trkpt lat="42.99563" lon="-0.40075">
        <ele>761.982178</ele>
        <time>2011-11-20T10:18:49Z</time>
      </trkpt>
      <trkpt lat="42.99557" lon="-0.40041">
        <ele>764.866211</ele>
        <time>2011-11-20T10:19:11Z</time>
      </trkpt>
      <trkpt lat="42.99549" lon="-0.40003">
        <ele>767.75</ele>
        <time>2011-11-20T10:19:35Z</time>
      </trkpt>
      <trkpt lat="42.99548" lon="-0.39974">
        <ele>770.634033</ele>
        <time>2011-11-20T10:19:55Z</time>
      </trkpt>
      <trkpt lat="42.99547" lon="-0.39953">
        <ele>773.518066</ele>
        <time>2011-11-20T10:20:10Z</time>
      </trkpt>
      <trkpt lat="42.99546" lon="-0.3994">
        <ele>775.44043</ele>
        <time>2011-11-20T10:20:25Z</time>
      </trkpt>
      <trkpt lat="42.99546" lon="-0.39926">
        <ele>777.363281</ele>
        <time>2011-11-20T10:20:39Z</time>
      </trkpt>
      <trkpt lat="42.99545" lon="-0.39903">
        <ele>780.728027</ele>
        <time>2011-11-20T10:20:56Z</time>
      </trkpt>
      <trkpt lat="42.99546" lon="-0.39875">
        <ele>782.650635</ele>
        <time>2011-11-20T10:21:16Z</time>
      </trkpt>
      <trkpt lat="42.99546" lon="-0.39853">
        <ele>786.49585</ele>
        <time>2011-11-20T10:21:32Z</time>
      </trkpt>
      <trkpt lat="42.99544" lon="-0.39836">
        <ele>789.379639</ele>
        <time>2011-11-20T10:21:44Z</time>
      </trkpt>
      <trkpt lat="42.9954" lon="-0.39815">
        <ele>792.744385</ele>
        <time>2011-11-20T10:21:59Z</time>
      </trkpt>
      <trkpt lat="42.99542" lon="-0.39788">
        <ele>794.666748</ele>
        <time>2011-11-20T10:22:20Z</time>
      </trkpt>
      <trkpt lat="42.99545" lon="-0.3977">
        <ele>797.551025</ele>
        <time>2011-11-20T10:22:34Z</time>
      </trkpt>
      <trkpt lat="42.99552" lon="-0.39749">
        <ele>800.915527</ele>
        <time>2011-11-20T10:22:55Z</time>
      </trkpt>
      <trkpt lat="42.99555" lon="-0.3976">
        <ele>803.799561</ele>
        <time>2011-11-20T10:23:08Z</time>
      </trkpt>
      <trkpt lat="42.99557" lon="-0.39791">
        <ele>806.202637</ele>
        <time>2011-11-20T10:23:30Z</time>
      </trkpt>
      <trkpt lat="42.9956" lon="-0.39794">
        <ele>808.125488</ele>
        <time>2011-11-20T10:23:43Z</time>
      </trkpt>
      <trkpt lat="42.99562" lon="-0.39793">
        <ele>808.605957</ele>
        <time>2011-11-20T10:23:51Z</time>
      </trkpt>
      <trkpt lat="42.99566" lon="-0.39781">
        <ele>810.528564</ele>
        <time>2011-11-20T10:24:00Z</time>
      </trkpt>
      <trkpt lat="42.9957" lon="-0.39752">
        <ele>813.412842</ele>
        <time>2011-11-20T10:24:19Z</time>
      </trkpt>
      <trkpt lat="42.99574" lon="-0.39735">
        <ele>816.777344</ele>
        <time>2011-11-20T10:24:29Z</time>
      </trkpt>
      <trkpt lat="42.99583" lon="-0.39707">
        <ele>819.661377</ele>
        <time>2011-11-20T10:24:47Z</time>
      </trkpt>
      <trkpt lat="42.9959" lon="-0.39677">
        <ele>821.58374</ele>
        <time>2011-11-20T10:25:07Z</time>
      </trkpt>
      <trkpt lat="42.99596" lon="-0.39649">
        <ele>824.948486</ele>
        <time>2011-11-20T10:25:26Z</time>
      </trkpt>
      <trkpt lat="42.996" lon="-0.39622">
        <ele>828.313232</ele>
        <time>2011-11-20T10:25:44Z</time>
      </trkpt>
      <trkpt lat="42.99615" lon="-0.39598">
        <ele>830.23584</ele>
        <time>2011-11-20T10:26:04Z</time>
      </trkpt>
      <trkpt lat="42.99626" lon="-0.3959">
        <ele>830.716553</ele>
        <time>2011-11-20T10:26:13Z</time>
      </trkpt>
      <trkpt lat="42.99634" lon="-0.39559">
        <ele>831.197266</ele>
        <time>2011-11-20T10:26:33Z</time>
      </trkpt>
      <trkpt lat="42.99628" lon="-0.39532">
        <ele>833.600342</ele>
        <time>2011-11-20T10:26:50Z</time>
      </trkpt>
      <trkpt lat="42.99622" lon="-0.39514">
        <ele>835.04248</ele>
        <time>2011-11-20T10:27:05Z</time>
      </trkpt>
      <trkpt lat="42.9962" lon="-0.39499">
        <ele>837.92627</ele>
        <time>2011-11-20T10:27:16Z</time>
      </trkpt>
      <trkpt lat="42.99621" lon="-0.39494">
        <ele>838.406982</ele>
        <time>2011-11-20T10:27:21Z</time>
      </trkpt>
      <trkpt lat="42.99629" lon="-0.39475">
        <ele>842.252197</ele>
        <time>2011-11-20T10:27:35Z</time>
      </trkpt>
      <trkpt lat="42.99633" lon="-0.39465">
        <ele>842.73291</ele>
        <time>2011-11-20T10:27:49Z</time>
      </trkpt>
      <trkpt lat="42.99631" lon="-0.39471">
        <ele>843.213379</ele>
        <time>2011-11-20T10:28:05Z</time>
      </trkpt>
      <trkpt lat="42.9963" lon="-0.39468">
        <ele>843.213379</ele>
        <time>2011-11-20T10:28:29Z</time>
      </trkpt>
      <trkpt lat="42.99634" lon="-0.39456">
        <ele>845.13623</ele>
        <time>2011-11-20T10:28:58Z</time>
      </trkpt>
      <trkpt lat="42.99634" lon="-0.39453">
        <ele>845.616943</ele>
        <time>2011-11-20T10:29:13Z</time>
      </trkpt>
      <trkpt lat="42.99635" lon="-0.39452">
        <ele>845.616943</ele>
        <time>2011-11-20T10:29:14Z</time>
      </trkpt>
      <trkpt lat="42.99639" lon="-0.39422">
        <ele>847.058838</ele>
        <time>2011-11-20T10:29:35Z</time>
      </trkpt>
      <trkpt lat="42.9964" lon="-0.39407">
        <ele>848.981445</ele>
        <time>2011-11-20T10:29:48Z</time>
      </trkpt>
      <trkpt lat="42.99639" lon="-0.39385">
        <ele>852.82666</ele>
        <time>2011-11-20T10:30:05Z</time>
      </trkpt>
      <trkpt lat="42.99638" lon="-0.39374">
        <ele>853.788086</ele>
        <time>2011-11-20T10:30:13Z</time>
      </trkpt>
      <trkpt lat="42.99639" lon="-0.3936">
        <ele>854.268799</ele>
        <time>2011-11-20T10:30:22Z</time>
      </trkpt>
      <trkpt lat="42.99638" lon="-0.39354">
        <ele>853.788086</ele>
        <time>2011-11-20T10:30:26Z</time>
      </trkpt>
      <trkpt lat="42.9965" lon="-0.39333">
        <ele>854.268799</ele>
        <time>2011-11-20T10:30:43Z</time>
      </trkpt>
      <trkpt lat="42.99663" lon="-0.39313">
        <ele>855.710693</ele>
        <time>2011-11-20T10:31:00Z</time>
      </trkpt>
      <trkpt lat="42.99675" lon="-0.39282">
        <ele>857.633301</ele>
        <time>2011-11-20T10:31:21Z</time>
      </trkpt>
      <trkpt lat="42.99679" lon="-0.39256">
        <ele>858.114014</ele>
        <time>2011-11-20T10:31:38Z</time>
      </trkpt>
      <trkpt lat="42.99671" lon="-0.39234">
        <ele>858.594482</ele>
        <time>2011-11-20T10:31:54Z</time>
      </trkpt>
      <trkpt lat="42.99661" lon="-0.39208">
        <ele>860.998047</ele>
        <time>2011-11-20T10:32:11Z</time>
      </trkpt>
      <trkpt lat="42.99653" lon="-0.39177">
        <ele>862.439941</ele>
        <time>2011-11-20T10:32:30Z</time>
      </trkpt>
      <trkpt lat="42.99648" lon="-0.39156">
        <ele>865.804688</ele>
        <time>2011-11-20T10:32:44Z</time>
      </trkpt>
      <trkpt lat="42.99652" lon="-0.3913">
        <ele>866.765869</ele>
        <time>2011-11-20T10:33:01Z</time>
      </trkpt>
      <trkpt lat="42.99655" lon="-0.39121">
        <ele>867.246582</ele>
        <time>2011-11-20T10:33:19Z</time>
      </trkpt>
      <trkpt lat="42.99658" lon="-0.39109">
        <ele>867.727051</ele>
        <time>2011-11-20T10:33:39Z</time>
      </trkpt>
      <trkpt lat="42.99657" lon="-0.39109">
        <ele>868.207764</ele>
        <time>2011-11-20T10:33:54Z</time>
      </trkpt>
      <trkpt lat="42.99652" lon="-0.3911">
        <ele>868.207764</ele>
        <time>2011-11-20T10:34:14Z</time>
      </trkpt>
      <trkpt lat="42.99652" lon="-0.39106">
        <ele>869.169189</ele>
        <time>2011-11-20T10:34:33Z</time>
      </trkpt>
      <trkpt lat="42.99632" lon="-0.39082">
        <ele>867.727051</ele>
        <time>2011-11-20T10:34:56Z</time>
      </trkpt>
      <trkpt lat="42.99621" lon="-0.39061">
        <ele>870.611084</ele>
        <time>2011-11-20T10:35:12Z</time>
      </trkpt>
      <trkpt lat="42.9962" lon="-0.39059">
        <ele>869.649902</ele>
        <time>2011-11-20T10:35:13Z</time>
      </trkpt>
      <trkpt lat="42.99618" lon="-0.39029">
        <ele>870.611084</ele>
        <time>2011-11-20T10:35:30Z</time>
      </trkpt>
      <trkpt lat="42.99618" lon="-0.39028">
        <ele>870.611084</ele>
        <time>2011-11-20T10:35:31Z</time>
      </trkpt>
      <trkpt lat="42.99617" lon="-0.38997">
        <ele>870.130371</ele>
        <time>2011-11-20T10:35:49Z</time>
      </trkpt>
      <trkpt lat="42.9962" lon="-0.38966">
        <ele>869.169189</ele>
        <time>2011-11-20T10:36:09Z</time>
      </trkpt>
      <trkpt lat="42.99623" lon="-0.38953">
        <ele>870.130371</ele>
        <time>2011-11-20T10:36:21Z</time>
      </trkpt>
      <trkpt lat="42.99626" lon="-0.38938">
        <ele>870.130371</ele>
        <time>2011-11-20T10:36:41Z</time>
      </trkpt>
      <trkpt lat="42.99624" lon="-0.38935">
        <ele>871.572266</ele>
        <time>2011-11-20T10:36:53Z</time>
      </trkpt>
      <trkpt lat="42.99625" lon="-0.38899">
        <ele>873.014404</ele>
        <time>2011-11-20T10:37:14Z</time>
      </trkpt>
      <trkpt lat="42.99629" lon="-0.38881">
        <ele>873.975586</ele>
        <time>2011-11-20T10:37:30Z</time>
      </trkpt>
      <trkpt lat="42.99636" lon="-0.38866">
        <ele>875.898193</ele>
        <time>2011-11-20T10:37:45Z</time>
      </trkpt>
      <trkpt lat="42.99644" lon="-0.38859">
        <ele>876.859863</ele>
        <time>2011-11-20T10:38:03Z</time>
      </trkpt>
      <trkpt lat="42.99647" lon="-0.38854">
        <ele>877.821045</ele>
        <time>2011-11-20T10:38:19Z</time>
      </trkpt>
      <trkpt lat="42.99648" lon="-0.38843">
        <ele>878.782471</ele>
        <time>2011-11-20T10:38:34Z</time>
      </trkpt>
      <trkpt lat="42.9965" lon="-0.38833">
        <ele>879.262939</ele>
        <time>2011-11-20T10:38:53Z</time>
      </trkpt>
      <trkpt lat="42.99653" lon="-0.38826">
        <ele>879.743652</ele>
        <time>2011-11-20T10:39:12Z</time>
      </trkpt>
      <trkpt lat="42.99656" lon="-0.38814">
        <ele>879.262939</ele>
        <time>2011-11-20T10:39:27Z</time>
      </trkpt>
      <trkpt lat="42.99655" lon="-0.38813">
        <ele>879.262939</ele>
        <time>2011-11-20T10:39:32Z</time>
      </trkpt>
      <trkpt lat="42.99654" lon="-0.38817">
        <ele>878.301758</ele>
        <time>2011-11-20T10:39:36Z</time>
      </trkpt>
      <trkpt lat="42.99658" lon="-0.38836">
        <ele>880.705078</ele>
        <time>2011-11-20T10:39:52Z</time>
      </trkpt>
      <trkpt lat="42.99655" lon="-0.38845">
        <ele>881.185791</ele>
        <time>2011-11-20T10:40:09Z</time>
      </trkpt>
      <trkpt lat="42.99654" lon="-0.38845">
        <ele>881.185791</ele>
        <time>2011-11-20T10:40:52Z</time>
      </trkpt>
      <trkpt lat="42.99653" lon="-0.38817">
        <ele>879.262939</ele>
        <time>2011-11-20T10:41:09Z</time>
      </trkpt>
      <trkpt lat="42.99657" lon="-0.3879">
        <ele>880.705078</ele>
        <time>2011-11-20T10:41:24Z</time>
      </trkpt>
      <trkpt lat="42.99651" lon="-0.38775">
        <ele>882.146973</ele>
        <time>2011-11-20T10:41:34Z</time>
      </trkpt>
      <trkpt lat="42.99639" lon="-0.38768">
        <ele>883.588867</ele>
        <time>2011-11-20T10:41:47Z</time>
      </trkpt>
      <trkpt lat="42.99625" lon="-0.3875">
        <ele>885.511475</ele>
        <time>2011-11-20T10:42:05Z</time>
      </trkpt>
      <trkpt lat="42.99616" lon="-0.38721">
        <ele>887.914795</ele>
        <time>2011-11-20T10:42:25Z</time>
      </trkpt>
      <trkpt lat="42.9961" lon="-0.38703">
        <ele>889.837402</ele>
        <time>2011-11-20T10:42:44Z</time>
      </trkpt>
      <trkpt lat="42.99604" lon="-0.38683">
        <ele>890.798584</ele>
        <time>2011-11-20T10:43:01Z</time>
      </trkpt>
      <trkpt lat="42.99598" lon="-0.38656">
        <ele>892.72168</ele>
        <time>2011-11-20T10:43:20Z</time>
      </trkpt>
      <trkpt lat="42.99592" lon="-0.38626">
        <ele>894.163574</ele>
        <time>2011-11-20T10:43:40Z</time>
      </trkpt>
      <trkpt lat="42.99584" lon="-0.38597">
        <ele>894.644043</ele>
        <time>2011-11-20T10:43:59Z</time>
      </trkpt>
      <trkpt lat="42.99582" lon="-0.38593">
        <ele>894.644043</ele>
        <time>2011-11-20T10:44:03Z</time>
      </trkpt>
      <trkpt lat="42.9958" lon="-0.38587">
        <ele>896.566895</ele>
        <time>2011-11-20T10:44:07Z</time>
      </trkpt>
      <trkpt lat="42.99565" lon="-0.38556">
        <ele>895.605469</ele>
        <time>2011-11-20T10:44:29Z</time>
      </trkpt>
      <trkpt lat="42.99555" lon="-0.38527">
        <ele>897.528076</ele>
        <time>2011-11-20T10:44:49Z</time>
      </trkpt>
      <trkpt lat="42.99545" lon="-0.38502">
        <ele>898.008789</ele>
        <time>2011-11-20T10:45:11Z</time>
      </trkpt>
      <trkpt lat="42.99545" lon="-0.385">
        <ele>898.489258</ele>
        <time>2011-11-20T10:45:32Z</time>
      </trkpt>
      <trkpt lat="42.99543" lon="-0.38494">
        <ele>898.489258</ele>
        <time>2011-11-20T10:45:50Z</time>
      </trkpt>
      <trkpt lat="42.9954" lon="-0.38489">
        <ele>898.489258</ele>
        <time>2011-11-20T10:46:15Z</time>
      </trkpt>
      <trkpt lat="42.99523" lon="-0.38466">
        <ele>900.412109</ele>
        <time>2011-11-20T10:46:34Z</time>
      </trkpt>
      <trkpt lat="42.99506" lon="-0.38441">
        <ele>902.334473</ele>
        <time>2011-11-20T10:46:54Z</time>
      </trkpt>
      <trkpt lat="42.99491" lon="-0.38422">
        <ele>902.815186</ele>
        <time>2011-11-20T10:47:11Z</time>
      </trkpt>
      <trkpt lat="42.99478" lon="-0.38405">
        <ele>903.776611</ele>
        <time>2011-11-20T10:47:29Z</time>
      </trkpt>
      <trkpt lat="42.99464" lon="-0.38389">
        <ele>904.737793</ele>
        <time>2011-11-20T10:47:45Z</time>
      </trkpt>
      <trkpt lat="42.99452" lon="-0.38376">
        <ele>907.141113</ele>
        <time>2011-11-20T10:48:05Z</time>
      </trkpt>
      <trkpt lat="42.99437" lon="-0.38358">
        <ele>909.063965</ele>
        <time>2011-11-20T10:48:23Z</time>
      </trkpt>
      <trkpt lat="42.99439" lon="-0.3834">
        <ele>910.986572</ele>
        <time>2011-11-20T10:48:40Z</time>
      </trkpt>
      <trkpt lat="42.99448" lon="-0.38342">
        <ele>913.389893</ele>
        <time>2011-11-20T10:48:57Z</time>
      </trkpt>
      <trkpt lat="42.9947" lon="-0.38347">
        <ele>915.3125</ele>
        <time>2011-11-20T10:49:17Z</time>
      </trkpt>
      <trkpt lat="42.9949" lon="-0.38351">
        <ele>916.754395</ele>
        <time>2011-11-20T10:49:36Z</time>
      </trkpt>
      <trkpt lat="42.99491" lon="-0.38347">
        <ele>916.754395</ele>
        <time>2011-11-20T10:49:39Z</time>
      </trkpt>
      <trkpt lat="42.99492" lon="-0.38344">
        <ele>916.754395</ele>
        <time>2011-11-20T10:49:41Z</time>
      </trkpt>
      <trkpt lat="42.99477" lon="-0.38323">
        <ele>918.677002</ele>
        <time>2011-11-20T10:50:01Z</time>
      </trkpt>
      <trkpt lat="42.99469" lon="-0.38313">
        <ele>920.118896</ele>
        <time>2011-11-20T10:50:11Z</time>
      </trkpt>
      <trkpt lat="42.99457" lon="-0.38292">
        <ele>922.522217</ele>
        <time>2011-11-20T10:50:30Z</time>
      </trkpt>
      <trkpt lat="42.99456" lon="-0.38289">
        <ele>923.00293</ele>
        <time>2011-11-20T10:50:32Z</time>
      </trkpt>
      <trkpt lat="42.99457" lon="-0.38283">
        <ele>923.483643</ele>
        <time>2011-11-20T10:50:36Z</time>
      </trkpt>
      <trkpt lat="42.9947" lon="-0.38281">
        <ele>925.886963</ele>
        <time>2011-11-20T10:50:51Z</time>
      </trkpt>
      <trkpt lat="42.99491" lon="-0.38292">
        <ele>927.329102</ele>
        <time>2011-11-20T10:51:12Z</time>
      </trkpt>
      <trkpt lat="42.9951" lon="-0.38303">
        <ele>930.212891</ele>
        <time>2011-11-20T10:51:31Z</time>
      </trkpt>
      <trkpt lat="42.99524" lon="-0.38313">
        <ele>931.174316</ele>
        <time>2011-11-20T10:51:46Z</time>
      </trkpt>
      <trkpt lat="42.9953" lon="-0.38306">
        <ele>933.09668</ele>
        <time>2011-11-20T10:51:55Z</time>
      </trkpt>
      <trkpt lat="42.99522" lon="-0.38289">
        <ele>935.980713</ele>
        <time>2011-11-20T10:52:11Z</time>
      </trkpt>
      <trkpt lat="42.9951" lon="-0.38273">
        <ele>937.90332</ele>
        <time>2011-11-20T10:52:27Z</time>
      </trkpt>
      <trkpt lat="42.99505" lon="-0.38262">
        <ele>938.384033</ele>
        <time>2011-11-20T10:52:35Z</time>
      </trkpt>
      <trkpt lat="42.99495" lon="-0.38241">
        <ele>940.787354</ele>
        <time>2011-11-20T10:52:52Z</time>
      </trkpt>
      <trkpt lat="42.99499" lon="-0.3823">
        <ele>942.710205</ele>
        <time>2011-11-20T10:53:08Z</time>
      </trkpt>
      <trkpt lat="42.99502" lon="-0.38234">
        <ele>942.710205</ele>
        <time>2011-11-20T10:53:12Z</time>
      </trkpt>
      <trkpt lat="42.99505" lon="-0.38241">
        <ele>942.710205</ele>
        <time>2011-11-20T10:53:18Z</time>
      </trkpt>
      <trkpt lat="42.99516" lon="-0.38258">
        <ele>946.074707</ele>
        <time>2011-11-20T10:53:35Z</time>
      </trkpt>
      <trkpt lat="42.99523" lon="-0.38263">
        <ele>947.035889</ele>
        <time>2011-11-20T10:53:43Z</time>
      </trkpt>
      <trkpt lat="42.99545" lon="-0.38272">
        <ele>950.400635</ele>
        <time>2011-11-20T10:54:03Z</time>
      </trkpt>
      <trkpt lat="42.99547" lon="-0.38273">
        <ele>950.400635</ele>
        <time>2011-11-20T10:54:05Z</time>
      </trkpt>
      <trkpt lat="42.99552" lon="-0.38267">
        <ele>951.361816</ele>
        <time>2011-11-20T10:54:11Z</time>
      </trkpt>
      <trkpt lat="42.99551" lon="-0.38262">
        <ele>952.803711</ele>
        <time>2011-11-20T10:54:15Z</time>
      </trkpt>
      <trkpt lat="42.99549" lon="-0.38259">
        <ele>952.803711</ele>
        <time>2011-11-20T10:54:18Z</time>
      </trkpt>
      <trkpt lat="42.99538" lon="-0.38256">
        <ele>955.207031</ele>
        <time>2011-11-20T10:54:29Z</time>
      </trkpt>
      <trkpt lat="42.99527" lon="-0.3824">
        <ele>957.610596</ele>
        <time>2011-11-20T10:54:46Z</time>
      </trkpt>
      <trkpt lat="42.99525" lon="-0.38233">
        <ele>958.571777</ele>
        <time>2011-11-20T10:54:51Z</time>
      </trkpt>
      <trkpt lat="42.99532" lon="-0.38229">
        <ele>960.975098</ele>
        <time>2011-11-20T10:55:07Z</time>
      </trkpt>
      <trkpt lat="42.99532" lon="-0.3823">
        <ele>960.975098</ele>
        <time>2011-11-20T10:55:08Z</time>
      </trkpt>
      <trkpt lat="42.99542" lon="-0.38238">
        <ele>961.936523</ele>
        <time>2011-11-20T10:55:19Z</time>
      </trkpt>
      <trkpt lat="42.99563" lon="-0.38236">
        <ele>965.301025</ele>
        <time>2011-11-20T10:55:40Z</time>
      </trkpt>
      <trkpt lat="42.99566" lon="-0.38238">
        <ele>965.781738</ele>
        <time>2011-11-20T10:55:43Z</time>
      </trkpt>
      <trkpt lat="42.99575" lon="-0.38254">
        <ele>966.262207</ele>
        <time>2011-11-20T10:55:58Z</time>
      </trkpt>
      <trkpt lat="42.99579" lon="-0.38266">
        <ele>967.704102</ele>
        <time>2011-11-20T10:56:07Z</time>
      </trkpt>
      <trkpt lat="42.99581" lon="-0.38283">
        <ele>970.588135</ele>
        <time>2011-11-20T10:56:19Z</time>
      </trkpt>
      <trkpt lat="42.99591" lon="-0.38288">
        <ele>973.472412</ele>
        <time>2011-11-20T10:56:34Z</time>
      </trkpt>
      <trkpt lat="42.99592" lon="-0.38278">
        <ele>973.952881</ele>
        <time>2011-11-20T10:56:51Z</time>
      </trkpt>
      <trkpt lat="42.99594" lon="-0.38266">
        <ele>976.356201</ele>
        <time>2011-11-20T10:57:10Z</time>
      </trkpt>
      <trkpt lat="42.99595" lon="-0.38255">
        <ele>979.23999</ele>
        <time>2011-11-20T10:57:20Z</time>
      </trkpt>
      <trkpt lat="42.99599" lon="-0.38234">
        <ele>982.604736</ele>
        <time>2011-11-20T10:57:40Z</time>
      </trkpt>
      <trkpt lat="42.99599" lon="-0.38227">
        <ele>983.085205</ele>
        <time>2011-11-20T10:57:47Z</time>
      </trkpt>
      <trkpt lat="42.996" lon="-0.38208">
        <ele>985.969238</ele>
        <time>2011-11-20T10:58:05Z</time>
      </trkpt>
      <trkpt lat="42.99603" lon="-0.38206">
        <ele>987.411133</ele>
        <time>2011-11-20T10:58:21Z</time>
      </trkpt>
      <trkpt lat="42.99603" lon="-0.38215">
        <ele>988.372803</ele>
        <time>2011-11-20T10:58:40Z</time>
      </trkpt>
      <trkpt lat="42.99603" lon="-0.38218">
        <ele>988.853516</ele>
        <time>2011-11-20T10:58:43Z</time>
      </trkpt>
      <trkpt lat="42.99611" lon="-0.38242">
        <ele>992.218018</ele>
        <time>2011-11-20T10:59:02Z</time>
      </trkpt>
      <trkpt lat="42.99619" lon="-0.38268">
        <ele>995.101807</ele>
        <time>2011-11-20T10:59:21Z</time>
      </trkpt>
      <trkpt lat="42.99626" lon="-0.38289">
        <ele>997.98584</ele>
        <time>2011-11-20T10:59:37Z</time>
      </trkpt>
      <trkpt lat="42.9963" lon="-0.38306">
        <ele>999.908447</ele>
        <time>2011-11-20T10:59:51Z</time>
      </trkpt>
      <trkpt lat="42.99633" lon="-0.38322">
        <ele>1002.792236</ele>
        <time>2011-11-20T11:00:06Z</time>
      </trkpt>
      <trkpt lat="42.99637" lon="-0.38335">
        <ele>1005.195801</ele>
        <time>2011-11-20T11:00:23Z</time>
      </trkpt>
      <trkpt lat="42.99637" lon="-0.38335">
        <ele>1005.676514</ele>
        <time>2011-11-20T11:00:24Z</time>
      </trkpt>
      <trkpt lat="42.99642" lon="-0.38346">
        <ele>1007.118408</ele>
        <time>2011-11-20T11:00:38Z</time>
      </trkpt>
      <trkpt lat="42.99649" lon="-0.38361">
        <ele>1009.041016</ele>
        <time>2011-11-20T11:00:54Z</time>
      </trkpt>
      <trkpt lat="42.99654" lon="-0.38374">
        <ele>1012.405518</ele>
        <time>2011-11-20T11:01:07Z</time>
      </trkpt>
      <trkpt lat="42.9966" lon="-0.3839">
        <ele>1014.328125</ele>
        <time>2011-11-20T11:01:22Z</time>
      </trkpt>
      <trkpt lat="42.9967" lon="-0.38411">
        <ele>1017.692627</ele>
        <time>2011-11-20T11:01:42Z</time>
      </trkpt>
      <trkpt lat="42.99679" lon="-0.38435">
        <ele>1020.576904</ele>
        <time>2011-11-20T11:02:02Z</time>
      </trkpt>
      <trkpt lat="42.99686" lon="-0.38451">
        <ele>1022.980225</ele>
        <time>2011-11-20T11:02:19Z</time>
      </trkpt>
      <trkpt lat="42.99691" lon="-0.38458">
        <ele>1023.460938</ele>
        <time>2011-11-20T11:02:33Z</time>
      </trkpt>
      <trkpt lat="42.99693" lon="-0.38455">
        <ele>1023.941406</ele>
        <time>2011-11-20T11:02:57Z</time>
      </trkpt>
      <trkpt lat="42.99696" lon="-0.38458">
        <ele>1024.422119</ele>
        <time>2011-11-20T11:03:06Z</time>
      </trkpt>
      <trkpt lat="42.99698" lon="-0.38458">
        <ele>1024.902832</ele>
        <time>2011-11-20T11:03:25Z</time>
      </trkpt>
      <trkpt lat="42.99698" lon="-0.38459">
        <ele>1023.460938</ele>
        <time>2011-11-20T11:03:44Z</time>
      </trkpt>
      <trkpt lat="42.99696" lon="-0.38459">
        <ele>1023.941406</ele>
        <time>2011-11-20T11:05:20Z</time>
      </trkpt>
      <trkpt lat="42.99696" lon="-0.38461">
        <ele>1023.941406</ele>
        <time>2011-11-20T11:06:31Z</time>
      </trkpt>
      <trkpt lat="42.99697" lon="-0.38457">
        <ele>1023.941406</ele>
        <time>2011-11-20T11:06:52Z</time>
      </trkpt>
      <trkpt lat="42.99697" lon="-0.38458">
        <ele>1023.941406</ele>
        <time>2011-11-20T11:07:19Z</time>
      </trkpt>
      <trkpt lat="42.99695" lon="-0.38459">
        <ele>1024.422119</ele>
        <time>2011-11-20T11:07:50Z</time>
      </trkpt>
      <trkpt lat="42.99695" lon="-0.38459">
        <ele>1023.460938</ele>
        <time>2011-11-20T11:08:20Z</time>
      </trkpt>
      <trkpt lat="42.99695" lon="-0.38461">
        <ele>1024.422119</ele>
        <time>2011-11-20T11:09:04Z</time>
      </trkpt>
      <trkpt lat="42.99697" lon="-0.38459">
        <ele>1025.383301</ele>
        <time>2011-11-20T11:09:30Z</time>
      </trkpt>
      <trkpt lat="42.99695" lon="-0.38459">
        <ele>1025.383301</ele>
        <time>2011-11-20T11:10:06Z</time>
      </trkpt>
      <trkpt lat="42.99696" lon="-0.3846">
        <ele>1024.902832</ele>
        <time>2011-11-20T11:11:11Z</time>
      </trkpt>
      <trkpt lat="42.99696" lon="-0.3846">
        <ele>1024.902832</ele>
        <time>2011-11-20T11:12:18Z</time>
      </trkpt>
      <trkpt lat="42.99697" lon="-0.3846">
        <ele>1025.383301</ele>
        <time>2011-11-20T11:14:01Z</time>
      </trkpt>
      <trkpt lat="42.99697" lon="-0.3846">
        <ele>1025.383301</ele>
        <time>2011-11-20T11:15:10Z</time>
      </trkpt>
      <trkpt lat="42.99685" lon="-0.38471">
        <ele>1028.267334</ele>
        <time>2011-11-20T11:28:07Z</time>
      </trkpt>
    </trkseg>
  </trk>
  <trk>
    <name><![CDATA[ACTIVE LOG 003]]></name>
    <trkseg>
      <trkpt lat="42.99697" lon="-0.38458">
        <ele>1002.792236</ele>
        <time>2011-11-20T11:33:43Z</time>
      </trkpt>
      <trkpt lat="42.99697" lon="-0.38461">
        <ele>1002.311523</ele>
        <time>2011-11-20T11:33:44Z</time>
      </trkpt>
      <trkpt lat="42.99696" lon="-0.3846">
        <ele>1005.676514</ele>
        <time>2011-11-20T11:33:50Z</time>
      </trkpt>
      <trkpt lat="42.99696" lon="-0.3846">
        <ele>1007.118408</ele>
        <time>2011-11-20T11:33:52Z</time>
      </trkpt>
      <trkpt lat="42.99697" lon="-0.3846">
        <ele>1008.079834</ele>
        <time>2011-11-20T11:33:54Z</time>
      </trkpt>
      <trkpt lat="42.99696" lon="-0.3846">
        <ele>1011.925049</ele>
        <time>2011-11-20T11:34:01Z</time>
      </trkpt>
      <trkpt lat="42.99696" lon="-0.3846">
        <ele>1013.366943</ele>
        <time>2011-11-20T11:34:04Z</time>
      </trkpt>
      <trkpt lat="42.99696" lon="-0.3846">
        <ele>1016.731445</ele>
        <time>2011-11-20T11:34:12Z</time>
      </trkpt>
      <trkpt lat="42.99696" lon="-0.3846">
        <ele>1018.17334</ele>
        <time>2011-11-20T11:34:16Z</time>
      </trkpt>
      <trkpt lat="42.99696" lon="-0.3846">
        <ele>1021.538086</ele>
        <time>2011-11-20T11:34:28Z</time>
      </trkpt>
      <trkpt lat="42.99696" lon="-0.38459">
        <ele>1024.422119</ele>
        <time>2011-11-20T11:34:51Z</time>
      </trkpt>
      <trkpt lat="42.99695" lon="-0.3846">
        <ele>1027.786621</ele>
        <time>2011-11-20T11:35:17Z</time>
      </trkpt>
      <trkpt lat="42.99693" lon="-0.38461">
        <ele>1027.786621</ele>
        <time>2011-11-20T11:36:41Z</time>
      </trkpt>
      <trkpt lat="42.99695" lon="-0.38458">
        <ele>1030.189941</ele>
        <time>2011-11-20T11:45:17Z</time>
      </trkpt>
      <trkpt lat="42.99696" lon="-0.3846">
        <ele>1029.228516</ele>
        <time>2011-11-20T11:46:59Z</time>
      </trkpt>
      <trkpt lat="42.99698" lon="-0.38458">
        <ele>1029.709229</ele>
        <time>2011-11-20T11:48:56Z</time>
      </trkpt>
      <trkpt lat="42.99697" lon="-0.38458">
        <ele>1030.670654</ele>
        <time>2011-11-20T11:49:37Z</time>
      </trkpt>
      <trkpt lat="42.99697" lon="-0.38458">
        <ele>1030.670654</ele>
        <time>2011-11-20T11:49:56Z</time>
      </trkpt>
      <trkpt lat="42.99696" lon="-0.38457">
        <ele>1031.151367</ele>
        <time>2011-11-20T11:50:24Z</time>
      </trkpt>
      <trkpt lat="42.99696" lon="-0.38456">
        <ele>1030.670654</ele>
        <time>2011-11-20T11:50:38Z</time>
      </trkpt>
      <trkpt lat="42.99692" lon="-0.38454">
        <ele>1029.228516</ele>
        <time>2011-11-20T11:50:51Z</time>
      </trkpt>
      <trkpt lat="42.99692" lon="-0.38455">
        <ele>1029.228516</ele>
        <time>2011-11-20T11:51:27Z</time>
      </trkpt>
      <trkpt lat="42.99685" lon="-0.38449">
        <ele>1028.267334</ele>
        <time>2011-11-20T11:51:55Z</time>
      </trkpt>
      <trkpt lat="42.99681" lon="-0.38434">
        <ele>1026.825439</ele>
        <time>2011-11-20T11:52:12Z</time>
      </trkpt>
      <trkpt lat="42.99677" lon="-0.38415">
        <ele>1025.383301</ele>
        <time>2011-11-20T11:52:30Z</time>
      </trkpt>
      <trkpt lat="42.99668" lon="-0.38397">
        <ele>1022.980225</ele>
        <time>2011-11-20T11:52:48Z</time>
      </trkpt>
      <trkpt lat="42.9966" lon="-0.3838">
        <ele>1019.615479</ele>
        <time>2011-11-20T11:53:08Z</time>
      </trkpt>
      <trkpt lat="42.99655" lon="-0.38367">
        <ele>1016.250732</ele>
        <time>2011-11-20T11:53:22Z</time>
      </trkpt>
      <trkpt lat="42.99648" lon="-0.38349">
        <ele>1013.847412</ele>
        <time>2011-11-20T11:53:40Z</time>
      </trkpt>
      <trkpt lat="42.99639" lon="-0.38334">
        <ele>1011.444336</ele>
        <time>2011-11-20T11:53:57Z</time>
      </trkpt>
      <trkpt lat="42.99633" lon="-0.38314">
        <ele>1008.079834</ele>
        <time>2011-11-20T11:54:16Z</time>
      </trkpt>
      <trkpt lat="42.99633" lon="-0.38313">
        <ele>1008.079834</ele>
        <time>2011-11-20T11:54:17Z</time>
      </trkpt>
      <trkpt lat="42.99629" lon="-0.38294">
        <ele>1004.715088</ele>
        <time>2011-11-20T11:54:37Z</time>
      </trkpt>
      <trkpt lat="42.99621" lon="-0.3827">
        <ele>1002.311523</ele>
        <time>2011-11-20T11:54:58Z</time>
      </trkpt>
      <trkpt lat="42.99613" lon="-0.38241">
        <ele>999.908447</ele>
        <time>2011-11-20T11:55:21Z</time>
      </trkpt>
      <trkpt lat="42.99606" lon="-0.3822">
        <ele>997.024414</ele>
        <time>2011-11-20T11:55:38Z</time>
      </trkpt>
      <trkpt lat="42.99598" lon="-0.38206">
        <ele>993.659912</ele>
        <time>2011-11-20T11:55:58Z</time>
      </trkpt>
      <trkpt lat="42.99596" lon="-0.38227">
        <ele>990.775879</ele>
        <time>2011-11-20T11:56:16Z</time>
      </trkpt>
      <trkpt lat="42.99594" lon="-0.38243">
        <ele>987.891846</ele>
        <time>2011-11-20T11:56:32Z</time>
      </trkpt>
      <trkpt lat="42.99592" lon="-0.38263">
        <ele>984.527344</ele>
        <time>2011-11-20T11:56:51Z</time>
      </trkpt>
      <trkpt lat="42.99592" lon="-0.38278">
        <ele>983.565918</ele>
        <time>2011-11-20T11:57:04Z</time>
      </trkpt>
      <trkpt lat="42.99585" lon="-0.38288">
        <ele>980.682129</ele>
        <time>2011-11-20T11:57:22Z</time>
      </trkpt>
      <trkpt lat="42.99582" lon="-0.38282">
        <ele>978.278809</ele>
        <time>2011-11-20T11:57:29Z</time>
      </trkpt>
      <trkpt lat="42.99575" lon="-0.38257">
        <ele>975.394775</ele>
        <time>2011-11-20T11:57:49Z</time>
      </trkpt>
      <trkpt lat="42.99565" lon="-0.38236">
        <ele>972.991699</ele>
        <time>2011-11-20T11:58:08Z</time>
      </trkpt>
      <trkpt lat="42.99562" lon="-0.38235">
        <ele>972.991699</ele>
        <time>2011-11-20T11:58:12Z</time>
      </trkpt>
      <trkpt lat="42.99541" lon="-0.38239">
        <ele>969.626953</ele>
        <time>2011-11-20T11:58:33Z</time>
      </trkpt>
      <trkpt lat="42.9954" lon="-0.38239">
        <ele>969.626953</ele>
        <time>2011-11-20T11:58:34Z</time>
      </trkpt>
      <trkpt lat="42.9953" lon="-0.38226">
        <ele>968.184814</ele>
        <time>2011-11-20T11:58:46Z</time>
      </trkpt>
      <trkpt lat="42.99524" lon="-0.38235">
        <ele>966.74292</ele>
        <time>2011-11-20T11:59:01Z</time>
      </trkpt>
      <trkpt lat="42.99525" lon="-0.38236">
        <ele>966.262207</ele>
        <time>2011-11-20T11:59:02Z</time>
      </trkpt>
      <trkpt lat="42.99536" lon="-0.38255">
        <ele>962.897705</ele>
        <time>2011-11-20T11:59:20Z</time>
      </trkpt>
      <trkpt lat="42.99552" lon="-0.38263">
        <ele>960.494385</ele>
        <time>2011-11-20T11:59:38Z</time>
      </trkpt>
      <trkpt lat="42.9955" lon="-0.38268">
        <ele>960.494385</ele>
        <time>2011-11-20T11:59:42Z</time>
      </trkpt>
      <trkpt lat="42.99547" lon="-0.38269">
        <ele>959.533203</ele>
        <time>2011-11-20T11:59:45Z</time>
      </trkpt>
      <trkpt lat="42.99534" lon="-0.38266">
        <ele>956.64917</ele>
        <time>2011-11-20T11:59:58Z</time>
      </trkpt>
      <trkpt lat="42.99514" lon="-0.38258">
        <ele>954.24585</ele>
        <time>2011-11-20T12:00:18Z</time>
      </trkpt>
      <trkpt lat="42.99506" lon="-0.38252">
        <ele>952.803711</ele>
        <time>2011-11-20T12:00:27Z</time>
      </trkpt>
      <trkpt lat="42.99499" lon="-0.38234">
        <ele>949.919922</ele>
        <time>2011-11-20T12:00:41Z</time>
      </trkpt>
      <trkpt lat="42.99493" lon="-0.38221">
        <ele>948.477783</ele>
        <time>2011-11-20T12:00:58Z</time>
      </trkpt>
      <trkpt lat="42.99491" lon="-0.38224">
        <ele>947.997314</ele>
        <time>2011-11-20T12:01:00Z</time>
      </trkpt>
      <trkpt lat="42.99489" lon="-0.38238">
        <ele>947.997314</ele>
        <time>2011-11-20T12:01:10Z</time>
      </trkpt>
      <trkpt lat="42.99501" lon="-0.38258">
        <ele>947.035889</ele>
        <time>2011-11-20T12:01:28Z</time>
      </trkpt>
      <trkpt lat="42.9951" lon="-0.38273">
        <ele>944.1521</ele>
        <time>2011-11-20T12:01:42Z</time>
      </trkpt>
      <trkpt lat="42.99524" lon="-0.38291">
        <ele>943.190674</ele>
        <time>2011-11-20T12:01:59Z</time>
      </trkpt>
      <trkpt lat="42.99529" lon="-0.38307">
        <ele>940.306885</ele>
        <time>2011-11-20T12:02:12Z</time>
      </trkpt>
      <trkpt lat="42.99527" lon="-0.38311">
        <ele>939.345215</ele>
        <time>2011-11-20T12:02:16Z</time>
      </trkpt>
      <trkpt lat="42.99522" lon="-0.38314">
        <ele>938.864746</ele>
        <time>2011-11-20T12:02:21Z</time>
      </trkpt>
      <trkpt lat="42.99506" lon="-0.38305">
        <ele>936.941895</ele>
        <time>2011-11-20T12:02:39Z</time>
      </trkpt>
      <trkpt lat="42.99486" lon="-0.3829">
        <ele>934.058105</ele>
        <time>2011-11-20T12:03:00Z</time>
      </trkpt>
      <trkpt lat="42.99465" lon="-0.3828">
        <ele>933.09668</ele>
        <time>2011-11-20T12:03:19Z</time>
      </trkpt>
      <trkpt lat="42.99459" lon="-0.38279">
        <ele>932.135498</ele>
        <time>2011-11-20T12:03:25Z</time>
      </trkpt>
      <trkpt lat="42.99453" lon="-0.38286">
        <ele>931.174316</ele>
        <time>2011-11-20T12:03:33Z</time>
      </trkpt>
      <trkpt lat="42.99454" lon="-0.3829">
        <ele>930.212891</ele>
        <time>2011-11-20T12:03:36Z</time>
      </trkpt>
      <trkpt lat="42.99469" lon="-0.38312">
        <ele>926.848389</ele>
        <time>2011-11-20T12:03:58Z</time>
      </trkpt>
      <trkpt lat="42.99488" lon="-0.38336">
        <ele>924.925781</ele>
        <time>2011-11-20T12:04:21Z</time>
      </trkpt>
      <trkpt lat="42.99491" lon="-0.38347">
        <ele>923.964111</ele>
        <time>2011-11-20T12:04:29Z</time>
      </trkpt>
      <trkpt lat="42.99486" lon="-0.38352">
        <ele>923.483643</ele>
        <time>2011-11-20T12:04:35Z</time>
      </trkpt>
      <trkpt lat="42.99463" lon="-0.38344">
        <ele>922.041504</ele>
        <time>2011-11-20T12:04:54Z</time>
      </trkpt>
      <trkpt lat="42.99451" lon="-0.38341">
        <ele>921.080322</ele>
        <time>2011-11-20T12:05:04Z</time>
      </trkpt>
      <trkpt lat="42.99433" lon="-0.38341">
        <ele>918.196289</ele>
        <time>2011-11-20T12:05:22Z</time>
      </trkpt>
      <trkpt lat="42.99435" lon="-0.38359">
        <ele>916.273682</ele>
        <time>2011-11-20T12:05:38Z</time>
      </trkpt>
      <trkpt lat="42.99442" lon="-0.38365">
        <ele>916.273682</ele>
        <time>2011-11-20T12:05:47Z</time>
      </trkpt>
      <trkpt lat="42.99458" lon="-0.38379">
        <ele>912.90918</ele>
        <time>2011-11-20T12:06:04Z</time>
      </trkpt>
      <trkpt lat="42.99475" lon="-0.38403">
        <ele>911.467285</ele>
        <time>2011-11-20T12:06:24Z</time>
      </trkpt>
      <trkpt lat="42.99491" lon="-0.38423">
        <ele>910.505859</ele>
        <time>2011-11-20T12:06:46Z</time>
      </trkpt>
      <trkpt lat="42.99497" lon="-0.3843">
        <ele>910.986572</ele>
        <time>2011-11-20T12:06:56Z</time>
      </trkpt>
      <trkpt lat="42.99512" lon="-0.38451">
        <ele>909.063965</ele>
        <time>2011-11-20T12:07:15Z</time>
      </trkpt>
      <trkpt lat="42.9953" lon="-0.3848">
        <ele>906.6604</ele>
        <time>2011-11-20T12:07:39Z</time>
      </trkpt>
      <trkpt lat="42.99546" lon="-0.38509">
        <ele>905.699219</ele>
        <time>2011-11-20T12:08:02Z</time>
      </trkpt>
      <trkpt lat="42.99558" lon="-0.38544">
        <ele>905.218506</ele>
        <time>2011-11-20T12:08:26Z</time>
      </trkpt>
      <trkpt lat="42.99564" lon="-0.38561">
        <ele>905.699219</ele>
        <time>2011-11-20T12:08:45Z</time>
      </trkpt>
      <trkpt lat="42.99568" lon="-0.38571">
        <ele>905.218506</ele>
        <time>2011-11-20T12:08:57Z</time>
      </trkpt>
      <trkpt lat="42.99584" lon="-0.38606">
        <ele>903.295898</ele>
        <time>2011-11-20T12:09:22Z</time>
      </trkpt>
      <trkpt lat="42.99591" lon="-0.38637">
        <ele>901.854004</ele>
        <time>2011-11-20T12:09:43Z</time>
      </trkpt>
      <trkpt lat="42.99599" lon="-0.38674">
        <ele>900.892578</ele>
        <time>2011-11-20T12:10:08Z</time>
      </trkpt>
      <trkpt lat="42.99604" lon="-0.387">
        <ele>898.489258</ele>
        <time>2011-11-20T12:10:26Z</time>
      </trkpt>
      <trkpt lat="42.99606" lon="-0.38705">
        <ele>897.528076</ele>
        <time>2011-11-20T12:10:30Z</time>
      </trkpt>
      <trkpt lat="42.99608" lon="-0.38714">
        <ele>897.528076</ele>
        <time>2011-11-20T12:10:37Z</time>
      </trkpt>
      <trkpt lat="42.99608" lon="-0.38717">
        <ele>897.047363</ele>
        <time>2011-11-20T12:10:39Z</time>
      </trkpt>
      <trkpt lat="42.99616" lon="-0.38739">
        <ele>896.086182</ele>
        <time>2011-11-20T12:10:57Z</time>
      </trkpt>
      <trkpt lat="42.99626" lon="-0.38762">
        <ele>893.682861</ele>
        <time>2011-11-20T12:11:15Z</time>
      </trkpt>
      <trkpt lat="42.99634" lon="-0.3877">
        <ele>893.202148</ele>
        <time>2011-11-20T12:11:24Z</time>
      </trkpt>
      <trkpt lat="42.99652" lon="-0.38779">
        <ele>890.798584</ele>
        <time>2011-11-20T12:11:41Z</time>
      </trkpt>
      <trkpt lat="42.99653" lon="-0.38784">
        <ele>889.837402</ele>
        <time>2011-11-20T12:11:45Z</time>
      </trkpt>
      <trkpt lat="42.99654" lon="-0.38795">
        <ele>888.395508</ele>
        <time>2011-11-20T12:11:54Z</time>
      </trkpt>
      <trkpt lat="42.99647" lon="-0.38831">
        <ele>888.395508</ele>
        <time>2011-11-20T12:12:18Z</time>
      </trkpt>
      <trkpt lat="42.9964" lon="-0.38856">
        <ele>887.434082</ele>
        <time>2011-11-20T12:12:38Z</time>
      </trkpt>
      <trkpt lat="42.99636" lon="-0.38861">
        <ele>885.511475</ele>
        <time>2011-11-20T12:12:44Z</time>
      </trkpt>
      <trkpt lat="42.99627" lon="-0.38871">
        <ele>884.550293</ele>
        <time>2011-11-20T12:12:57Z</time>
      </trkpt>
      <trkpt lat="42.99621" lon="-0.3891">
        <ele>882.146973</ele>
        <time>2011-11-20T12:13:23Z</time>
      </trkpt>
      <trkpt lat="42.99621" lon="-0.38942">
        <ele>881.185791</ele>
        <time>2011-11-20T12:13:44Z</time>
      </trkpt>
      <trkpt lat="42.99618" lon="-0.38961">
        <ele>880.705078</ele>
        <time>2011-11-20T12:13:56Z</time>
      </trkpt>
      <trkpt lat="42.99615" lon="-0.38985">
        <ele>881.185791</ele>
        <time>2011-11-20T12:14:13Z</time>
      </trkpt>
      <trkpt lat="42.99613" lon="-0.39014">
        <ele>881.66626</ele>
        <time>2011-11-20T12:14:30Z</time>
      </trkpt>
      <trkpt lat="42.99613" lon="-0.39016">
        <ele>881.66626</ele>
        <time>2011-11-20T12:14:31Z</time>
      </trkpt>
      <trkpt lat="42.99614" lon="-0.39046">
        <ele>881.66626</ele>
        <time>2011-11-20T12:14:49Z</time>
      </trkpt>
      <trkpt lat="42.99615" lon="-0.39049">
        <ele>882.146973</ele>
        <time>2011-11-20T12:14:51Z</time>
      </trkpt>
      <trkpt lat="42.99621" lon="-0.39079">
        <ele>880.224365</ele>
        <time>2011-11-20T12:15:09Z</time>
      </trkpt>
      <trkpt lat="42.99635" lon="-0.39097">
        <ele>879.743652</ele>
        <time>2011-11-20T12:15:24Z</time>
      </trkpt>
      <trkpt lat="42.99644" lon="-0.39107">
        <ele>880.224365</ele>
        <time>2011-11-20T12:15:34Z</time>
      </trkpt>
      <trkpt lat="42.99647" lon="-0.39118">
        <ele>879.262939</ele>
        <time>2011-11-20T12:15:42Z</time>
      </trkpt>
      <trkpt lat="42.9964" lon="-0.39152">
        <ele>878.301758</ele>
        <time>2011-11-20T12:16:05Z</time>
      </trkpt>
      <trkpt lat="42.99645" lon="-0.39174">
        <ele>874.937012</ele>
        <time>2011-11-20T12:16:20Z</time>
      </trkpt>
      <trkpt lat="42.99653" lon="-0.39201">
        <ele>873.014404</ele>
        <time>2011-11-20T12:16:38Z</time>
      </trkpt>
      <trkpt lat="42.99663" lon="-0.39224">
        <ele>870.611084</ele>
        <time>2011-11-20T12:16:56Z</time>
      </trkpt>
      <trkpt lat="42.99666" lon="-0.3923">
        <ele>870.130371</ele>
        <time>2011-11-20T12:17:01Z</time>
      </trkpt>
      <trkpt lat="42.99669" lon="-0.39237">
        <ele>870.130371</ele>
        <time>2011-11-20T12:17:06Z</time>
      </trkpt>
      <trkpt lat="42.99671" lon="-0.39267">
        <ele>869.169189</ele>
        <time>2011-11-20T12:17:26Z</time>
      </trkpt>
      <trkpt lat="42.99659" lon="-0.39295">
        <ele>868.688477</ele>
        <time>2011-11-20T12:17:45Z</time>
      </trkpt>
      <trkpt lat="42.99646" lon="-0.39323">
        <ele>866.765869</ele>
        <time>2011-11-20T12:18:06Z</time>
      </trkpt>
      <trkpt lat="42.99634" lon="-0.39354">
        <ele>865.804688</ele>
        <time>2011-11-20T12:18:28Z</time>
      </trkpt>
      <trkpt lat="42.99634" lon="-0.39373">
        <ele>864.362549</ele>
        <time>2011-11-20T12:18:39Z</time>
      </trkpt>
      <trkpt lat="42.99636" lon="-0.39396">
        <ele>861.47876</ele>
        <time>2011-11-20T12:18:55Z</time>
      </trkpt>
      <trkpt lat="42.99634" lon="-0.39424">
        <ele>858.114014</ele>
        <time>2011-11-20T12:19:14Z</time>
      </trkpt>
      <trkpt lat="42.99628" lon="-0.39455">
        <ele>856.671875</ele>
        <time>2011-11-20T12:19:36Z</time>
      </trkpt>
      <trkpt lat="42.99622" lon="-0.39471">
        <ele>853.307373</ele>
        <time>2011-11-20T12:19:49Z</time>
      </trkpt>
      <trkpt lat="42.99617" lon="-0.39484">
        <ele>850.904053</ele>
        <time>2011-11-20T12:20:00Z</time>
      </trkpt>
      <trkpt lat="42.99614" lon="-0.39497">
        <ele>849.462158</ele>
        <time>2011-11-20T12:20:10Z</time>
      </trkpt>
      <trkpt lat="42.99619" lon="-0.39518">
        <ele>846.097656</ele>
        <time>2011-11-20T12:20:27Z</time>
      </trkpt>
      <trkpt lat="42.99624" lon="-0.39535">
        <ele>845.13623</ele>
        <time>2011-11-20T12:20:42Z</time>
      </trkpt>
      <trkpt lat="42.99626" lon="-0.39566">
        <ele>843.694092</ele>
        <time>2011-11-20T12:21:02Z</time>
      </trkpt>
      <trkpt lat="42.99612" lon="-0.39593">
        <ele>842.73291</ele>
        <time>2011-11-20T12:21:24Z</time>
      </trkpt>
      <trkpt lat="42.99595" lon="-0.39615">
        <ele>840.810059</ele>
        <time>2011-11-20T12:21:44Z</time>
      </trkpt>
      <trkpt lat="42.99592" lon="-0.39636">
        <ele>837.92627</ele>
        <time>2011-11-20T12:22:00Z</time>
      </trkpt>
      <trkpt lat="42.99588" lon="-0.39663">
        <ele>835.522949</ele>
        <time>2011-11-20T12:22:18Z</time>
      </trkpt>
      <trkpt lat="42.99585" lon="-0.39676">
        <ele>834.081055</ele>
        <time>2011-11-20T12:22:27Z</time>
      </trkpt>
      <trkpt lat="42.99579" lon="-0.39699">
        <ele>832.158447</ele>
        <time>2011-11-20T12:22:44Z</time>
      </trkpt>
      <trkpt lat="42.99571" lon="-0.39723">
        <ele>829.274414</ele>
        <time>2011-11-20T12:23:02Z</time>
      </trkpt>
      <trkpt lat="42.99567" lon="-0.39741">
        <ele>827.351807</ele>
        <time>2011-11-20T12:23:19Z</time>
      </trkpt>
      <trkpt lat="42.99566" lon="-0.39745">
        <ele>825.909668</ele>
        <time>2011-11-20T12:23:37Z</time>
      </trkpt>
      <trkpt lat="42.99562" lon="-0.39763">
        <ele>823.506592</ele>
        <time>2011-11-20T12:23:51Z</time>
      </trkpt>
      <trkpt lat="42.99563" lon="-0.39788">
        <ele>822.545166</ele>
        <time>2011-11-20T12:24:09Z</time>
      </trkpt>
      <trkpt lat="42.99557" lon="-0.39789">
        <ele>820.141846</ele>
        <time>2011-11-20T12:24:18Z</time>
      </trkpt>
      <trkpt lat="42.99553" lon="-0.39764">
        <ele>816.296631</ele>
        <time>2011-11-20T12:24:35Z</time>
      </trkpt>
      <trkpt lat="42.99545" lon="-0.39746">
        <ele>812.932129</ele>
        <time>2011-11-20T12:24:55Z</time>
      </trkpt>
      <trkpt lat="42.9954" lon="-0.39761">
        <ele>811.48999</ele>
        <time>2011-11-20T12:25:07Z</time>
      </trkpt>
      <trkpt lat="42.99536" lon="-0.39787">
        <ele>807.644775</ele>
        <time>2011-11-20T12:25:26Z</time>
      </trkpt>
      <trkpt lat="42.99535" lon="-0.39805">
        <ele>805.241455</ele>
        <time>2011-11-20T12:25:39Z</time>
      </trkpt>
      <trkpt lat="42.99538" lon="-0.39832">
        <ele>802.357422</ele>
        <time>2011-11-20T12:25:58Z</time>
      </trkpt>
      <trkpt lat="42.99541" lon="-0.39849">
        <ele>798.99292</ele>
        <time>2011-11-20T12:26:11Z</time>
      </trkpt>
      <trkpt lat="42.99541" lon="-0.3985">
        <ele>798.99292</ele>
        <time>2011-11-20T12:26:12Z</time>
      </trkpt>
      <trkpt lat="42.99541" lon="-0.39855">
        <ele>798.99292</ele>
        <time>2011-11-20T12:26:15Z</time>
      </trkpt>
      <trkpt lat="42.99539" lon="-0.39882">
        <ele>795.147461</ele>
        <time>2011-11-20T12:26:33Z</time>
      </trkpt>
      <trkpt lat="42.9954" lon="-0.3991">
        <ele>792.263672</ele>
        <time>2011-11-20T12:26:53Z</time>
      </trkpt>
      <trkpt lat="42.99541" lon="-0.39935">
        <ele>789.379639</ele>
        <time>2011-11-20T12:27:11Z</time>
      </trkpt>
      <trkpt lat="42.99541" lon="-0.39936">
        <ele>788.89917</ele>
        <time>2011-11-20T12:27:12Z</time>
      </trkpt>
      <trkpt lat="42.99541" lon="-0.39954">
        <ele>786.015137</ele>
        <time>2011-11-20T12:27:25Z</time>
      </trkpt>
      <trkpt lat="42.99543" lon="-0.39984">
        <ele>782.650635</ele>
        <time>2011-11-20T12:27:46Z</time>
      </trkpt>
      <trkpt lat="42.99547" lon="-0.40017">
        <ele>780.247314</ele>
        <time>2011-11-20T12:28:08Z</time>
      </trkpt>
      <trkpt lat="42.9955" lon="-0.40032">
        <ele>779.285645</ele>
        <time>2011-11-20T12:28:24Z</time>
      </trkpt>
      <trkpt lat="42.99553" lon="-0.40043">
        <ele>778.324463</ele>
        <time>2011-11-20T12:28:31Z</time>
      </trkpt>
      <trkpt lat="42.99558" lon="-0.40075">
        <ele>775.44043</ele>
        <time>2011-11-20T12:28:52Z</time>
      </trkpt>
      <trkpt lat="42.99562" lon="-0.40111">
        <ele>773.518066</ele>
        <time>2011-11-20T12:29:15Z</time>
      </trkpt>
      <trkpt lat="42.99568" lon="-0.40141">
        <ele>771.114746</ele>
        <time>2011-11-20T12:29:35Z</time>
      </trkpt>
      <trkpt lat="42.99577" lon="-0.40168">
        <ele>769.672852</ele>
        <time>2011-11-20T12:29:54Z</time>
      </trkpt>
      <trkpt lat="42.99592" lon="-0.40203">
        <ele>768.230713</ele>
        <time>2011-11-20T12:30:19Z</time>
      </trkpt>
      <trkpt lat="42.99604" lon="-0.40231">
        <ele>765.346924</ele>
        <time>2011-11-20T12:30:39Z</time>
      </trkpt>
      <trkpt lat="42.99615" lon="-0.40256">
        <ele>764.385498</ele>
        <time>2011-11-20T12:30:57Z</time>
      </trkpt>
      <trkpt lat="42.99632" lon="-0.40278">
        <ele>762.462646</ele>
        <time>2011-11-20T12:31:16Z</time>
      </trkpt>
      <trkpt lat="42.99654" lon="-0.40297">
        <ele>761.020752</ele>
        <time>2011-11-20T12:31:37Z</time>
      </trkpt>
      <trkpt lat="42.99664" lon="-0.40325">
        <ele>757.65625</ele>
        <time>2011-11-20T12:31:57Z</time>
      </trkpt>
      <trkpt lat="42.99664" lon="-0.40354">
        <ele>754.291748</ele>
        <time>2011-11-20T12:32:16Z</time>
      </trkpt>
      <trkpt lat="42.99666" lon="-0.40379">
        <ele>750.927002</ele>
        <time>2011-11-20T12:32:33Z</time>
      </trkpt>
      <trkpt lat="42.99673" lon="-0.40408">
        <ele>749.004395</ele>
        <time>2011-11-20T12:32:53Z</time>
      </trkpt>
      <trkpt lat="42.99678" lon="-0.40446">
        <ele>748.523682</ele>
        <time>2011-11-20T12:33:14Z</time>
      </trkpt>
      <trkpt lat="42.99688" lon="-0.40481">
        <ele>748.523682</ele>
        <time>2011-11-20T12:33:36Z</time>
      </trkpt>
      <trkpt lat="42.99698" lon="-0.40521">
        <ele>748.043213</ele>
        <time>2011-11-20T12:34:00Z</time>
      </trkpt>
      <trkpt lat="42.99704" lon="-0.40557">
        <ele>748.043213</ele>
        <time>2011-11-20T12:34:22Z</time>
      </trkpt>
      <trkpt lat="42.99709" lon="-0.40593">
        <ele>748.523682</ele>
        <time>2011-11-20T12:34:43Z</time>
      </trkpt>
      <trkpt lat="42.9971" lon="-0.40631">
        <ele>749.004395</ele>
        <time>2011-11-20T12:35:05Z</time>
      </trkpt>
      <trkpt lat="42.99711" lon="-0.40651">
        <ele>750.927002</ele>
        <time>2011-11-20T12:35:18Z</time>
      </trkpt>
      <trkpt lat="42.99718" lon="-0.40672">
        <ele>754.291748</ele>
        <time>2011-11-20T12:35:35Z</time>
      </trkpt>
      <trkpt lat="42.99726" lon="-0.40704">
        <ele>756.214111</ele>
        <time>2011-11-20T12:35:55Z</time>
      </trkpt>
      <trkpt lat="42.99731" lon="-0.40725">
        <ele>757.65625</ele>
        <time>2011-11-20T12:36:09Z</time>
      </trkpt>
      <trkpt lat="42.99741" lon="-0.40754">
        <ele>757.175537</ele>
        <time>2011-11-20T12:36:28Z</time>
      </trkpt>
      <trkpt lat="42.99751" lon="-0.40782">
        <ele>757.175537</ele>
        <time>2011-11-20T12:36:46Z</time>
      </trkpt>
      <trkpt lat="42.99759" lon="-0.40821">
        <ele>755.25293</ele>
        <time>2011-11-20T12:37:09Z</time>
      </trkpt>
      <trkpt lat="42.99766" lon="-0.40851">
        <ele>755.25293</ele>
        <time>2011-11-20T12:37:29Z</time>
      </trkpt>
      <trkpt lat="42.99775" lon="-0.40879">
        <ele>754.291748</ele>
        <time>2011-11-20T12:37:51Z</time>
      </trkpt>
      <trkpt lat="42.99777" lon="-0.40877">
        <ele>754.291748</ele>
        <time>2011-11-20T12:38:53Z</time>
      </trkpt>
      <trkpt lat="42.99779" lon="-0.40879">
        <ele>756.214111</ele>
        <time>2011-11-20T12:46:07Z</time>
      </trkpt>
      <trkpt lat="42.99783" lon="-0.40882">
        <ele>756.694824</ele>
        <time>2011-11-20T12:46:26Z</time>
      </trkpt>
      <trkpt lat="42.99794" lon="-0.40887">
        <ele>755.733643</ele>
        <time>2011-11-20T12:46:40Z</time>
      </trkpt>
      <trkpt lat="42.99813" lon="-0.40899">
        <ele>752.368896</ele>
        <time>2011-11-20T12:47:01Z</time>
      </trkpt>
      <trkpt lat="42.99822" lon="-0.40908">
        <ele>749.004395</ele>
        <time>2011-11-20T12:47:16Z</time>
      </trkpt>
      <trkpt lat="42.99826" lon="-0.40918">
        <ele>746.601074</ele>
        <time>2011-11-20T12:47:28Z</time>
      </trkpt>
      <trkpt lat="42.99839" lon="-0.40922">
        <ele>743.717041</ele>
        <time>2011-11-20T12:47:42Z</time>
      </trkpt>
      <trkpt lat="42.99854" lon="-0.40923">
        <ele>741.794434</ele>
        <time>2011-11-20T12:47:54Z</time>
      </trkpt>
      <trkpt lat="42.99861" lon="-0.40929">
        <ele>740.833008</ele>
        <time>2011-11-20T12:48:05Z</time>
      </trkpt>
      <trkpt lat="42.99864" lon="-0.4093">
        <ele>739.391113</ele>
        <time>2011-11-20T12:48:08Z</time>
      </trkpt>
      <trkpt lat="42.99874" lon="-0.40935">
        <ele>736.507324</ele>
        <time>2011-11-20T12:48:20Z</time>
      </trkpt>
      <trkpt lat="42.99896" lon="-0.40938">
        <ele>733.142578</ele>
        <time>2011-11-20T12:48:37Z</time>
      </trkpt>
      <trkpt lat="42.9991" lon="-0.40941">
        <ele>730.739258</ele>
        <time>2011-11-20T12:48:50Z</time>
      </trkpt>
      <trkpt lat="42.99912" lon="-0.40941">
        <ele>730.258545</ele>
        <time>2011-11-20T12:48:51Z</time>
      </trkpt>
      <trkpt lat="42.99914" lon="-0.40942">
        <ele>728.81665</ele>
        <time>2011-11-20T12:48:53Z</time>
      </trkpt>
      <trkpt lat="42.99929" lon="-0.40944">
        <ele>725.451904</ele>
        <time>2011-11-20T12:49:07Z</time>
      </trkpt>
      <trkpt lat="42.99933" lon="-0.40953">
        <ele>722.087402</ele>
        <time>2011-11-20T12:49:20Z</time>
      </trkpt>
      <trkpt lat="42.99947" lon="-0.4096">
        <ele>719.684326</ele>
        <time>2011-11-20T12:49:34Z</time>
      </trkpt>
      <trkpt lat="42.99941" lon="-0.40971">
        <ele>716.800293</ele>
        <time>2011-11-20T12:49:44Z</time>
      </trkpt>
      <trkpt lat="42.99929" lon="-0.40969">
        <ele>714.877441</ele>
        <time>2011-11-20T12:49:56Z</time>
      </trkpt>
      <trkpt lat="42.99908" lon="-0.4097">
        <ele>711.512939</ele>
        <time>2011-11-20T12:50:14Z</time>
      </trkpt>
      <trkpt lat="42.99894" lon="-0.40987">
        <ele>708.628906</ele>
        <time>2011-11-20T12:50:30Z</time>
      </trkpt>
      <trkpt lat="42.99887" lon="-0.40993">
        <ele>708.628906</ele>
        <time>2011-11-20T12:50:36Z</time>
      </trkpt>
      <trkpt lat="42.99887" lon="-0.41009">
        <ele>707.667725</ele>
        <time>2011-11-20T12:50:51Z</time>
      </trkpt>
      <trkpt lat="42.99888" lon="-0.41008">
        <ele>706.706299</ele>
        <time>2011-11-20T12:51:04Z</time>
      </trkpt>
      <trkpt lat="42.99899" lon="-0.41002">
        <ele>704.303223</ele>
        <time>2011-11-20T12:51:23Z</time>
      </trkpt>
      <trkpt lat="42.99905" lon="-0.41001">
        <ele>702.861084</ele>
        <time>2011-11-20T12:51:29Z</time>
      </trkpt>
      <trkpt lat="42.99916" lon="-0.41001">
        <ele>701.419189</ele>
        <time>2011-11-20T12:51:41Z</time>
      </trkpt>
      <trkpt lat="42.99927" lon="-0.41006">
        <ele>699.496338</ele>
        <time>2011-11-20T12:51:53Z</time>
      </trkpt>
      <trkpt lat="42.99929" lon="-0.41008">
        <ele>698.534912</ele>
        <time>2011-11-20T12:51:55Z</time>
      </trkpt>
      <trkpt lat="42.99934" lon="-0.41021">
        <ele>695.651123</ele>
        <time>2011-11-20T12:52:08Z</time>
      </trkpt>
      <trkpt lat="42.99935" lon="-0.41033">
        <ele>693.247803</ele>
        <time>2011-11-20T12:52:17Z</time>
      </trkpt>
      <trkpt lat="42.99939" lon="-0.41045">
        <ele>690.844482</ele>
        <time>2011-11-20T12:52:27Z</time>
      </trkpt>
      <trkpt lat="42.99951" lon="-0.41063">
        <ele>687.47998</ele>
        <time>2011-11-20T12:52:46Z</time>
      </trkpt>
      <trkpt lat="42.99961" lon="-0.41082">
        <ele>683.634521</ele>
        <time>2011-11-20T12:53:03Z</time>
      </trkpt>
      <trkpt lat="42.99962" lon="-0.41089">
        <ele>682.67334</ele>
        <time>2011-11-20T12:53:08Z</time>
      </trkpt>
      <trkpt lat="42.99956" lon="-0.41106">
        <ele>679.308594</ele>
        <time>2011-11-20T12:53:24Z</time>
      </trkpt>
      <trkpt lat="42.99951" lon="-0.41115">
        <ele>676.905518</ele>
        <time>2011-11-20T12:53:32Z</time>
      </trkpt>
      <trkpt lat="42.9995" lon="-0.41127">
        <ele>674.98291</ele>
        <time>2011-11-20T12:53:42Z</time>
      </trkpt>
      <trkpt lat="42.99959" lon="-0.4114">
        <ele>671.137695</ele>
        <time>2011-11-20T12:53:56Z</time>
      </trkpt>
      <trkpt lat="42.99968" lon="-0.41153">
        <ele>667.772705</ele>
        <time>2011-11-20T12:54:09Z</time>
      </trkpt>
      <trkpt lat="42.9998" lon="-0.41169">
        <ele>664.408203</ele>
        <time>2011-11-20T12:54:24Z</time>
      </trkpt>
      <trkpt lat="42.99994" lon="-0.41194">
        <ele>662.005127</ele>
        <time>2011-11-20T12:54:46Z</time>
      </trkpt>
      <trkpt lat="43.00008" lon="-0.4121">
        <ele>659.601807</ele>
        <time>2011-11-20T12:55:05Z</time>
      </trkpt>
      <trkpt lat="43.00019" lon="-0.41228">
        <ele>656.237061</ele>
        <time>2011-11-20T12:55:21Z</time>
      </trkpt>
      <trkpt lat="43.00023" lon="-0.41239">
        <ele>653.353271</ele>
        <time>2011-11-20T12:55:29Z</time>
      </trkpt>
      <trkpt lat="43.00029" lon="-0.41257">
        <ele>652.391846</ele>
        <time>2011-11-20T12:55:43Z</time>
      </trkpt>
      <trkpt lat="43.00032" lon="-0.41263">
        <ele>651.43042</ele>
        <time>2011-11-20T12:55:48Z</time>
      </trkpt>
      <trkpt lat="43.00035" lon="-0.41269">
        <ele>649.988525</ele>
        <time>2011-11-20T12:55:53Z</time>
      </trkpt>
      <trkpt lat="43.00042" lon="-0.41283">
        <ele>647.104492</ele>
        <time>2011-11-20T12:56:08Z</time>
      </trkpt>
      <trkpt lat="43.00042" lon="-0.41284">
        <ele>647.104492</ele>
        <time>2011-11-20T12:56:09Z</time>
      </trkpt>
      <trkpt lat="43.00044" lon="-0.41301">
        <ele>644.220703</ele>
        <time>2011-11-20T12:56:21Z</time>
      </trkpt>
      <trkpt lat="43.0005" lon="-0.41312">
        <ele>641.33667</ele>
        <time>2011-11-20T12:56:33Z</time>
      </trkpt>
      <trkpt lat="43.00056" lon="-0.41331">
        <ele>637.491455</ele>
        <time>2011-11-20T12:56:49Z</time>
      </trkpt>
      <trkpt lat="43.00059" lon="-0.41345">
        <ele>635.568604</ele>
        <time>2011-11-20T12:57:03Z</time>
      </trkpt>
      <trkpt lat="43.00062" lon="-0.41362">
        <ele>634.607422</ele>
        <time>2011-11-20T12:57:20Z</time>
      </trkpt>
      <trkpt lat="43.00068" lon="-0.41362">
        <ele>635.088135</ele>
        <time>2011-11-20T12:57:34Z</time>
      </trkpt>
      <trkpt lat="43.00065" lon="-0.41363">
        <ele>634.607422</ele>
        <time>2011-11-20T12:57:50Z</time>
      </trkpt>
      <trkpt lat="43.00066" lon="-0.41369">
        <ele>633.165283</ele>
        <time>2011-11-20T12:57:54Z</time>
      </trkpt>
      <trkpt lat="43.00066" lon="-0.414">
        <ele>632.684814</ele>
        <time>2011-11-20T12:58:14Z</time>
      </trkpt>
      <trkpt lat="43.00049" lon="-0.41414">
        <ele>632.684814</ele>
        <time>2011-11-20T12:58:31Z</time>
      </trkpt>
      <trkpt lat="43.0005" lon="-0.41414">
        <ele>632.684814</ele>
        <time>2011-11-20T12:58:38Z</time>
      </trkpt>
      <trkpt lat="43.0005" lon="-0.41424">
        <ele>632.204102</ele>
        <time>2011-11-20T12:58:45Z</time>
      </trkpt>
      <trkpt lat="43.0005" lon="-0.41436">
        <ele>631.723389</ele>
        <time>2011-11-20T12:59:02Z</time>
      </trkpt>
      <trkpt lat="43.00049" lon="-0.41443">
        <ele>630.762207</ele>
        <time>2011-11-20T12:59:20Z</time>
      </trkpt>
      <trkpt lat="43.00048" lon="-0.4145">
        <ele>629.800781</ele>
        <time>2011-11-20T12:59:31Z</time>
      </trkpt>
      <trkpt lat="43.00042" lon="-0.41471">
        <ele>626.436279</ele>
        <time>2011-11-20T12:59:47Z</time>
      </trkpt>
      <trkpt lat="43.00043" lon="-0.41487">
        <ele>624.994385</ele>
        <time>2011-11-20T13:00:04Z</time>
      </trkpt>
      <trkpt lat="43.00039" lon="-0.41495">
        <ele>622.591064</ele>
        <time>2011-11-20T13:00:20Z</time>
      </trkpt>
      <trkpt lat="43.0003" lon="-0.41489">
        <ele>619.707031</ele>
        <time>2011-11-20T13:00:35Z</time>
      </trkpt>
      <trkpt lat="43.00019" lon="-0.41476">
        <ele>616.342285</ele>
        <time>2011-11-20T13:00:53Z</time>
      </trkpt>
      <trkpt lat="43.00014" lon="-0.41469">
        <ele>612.977783</ele>
        <time>2011-11-20T13:01:02Z</time>
      </trkpt>
      <trkpt lat="43.00001" lon="-0.41456">
        <ele>610.574463</ele>
        <time>2011-11-20T13:01:25Z</time>
      </trkpt>
      <trkpt lat="42.99998" lon="-0.41463">
        <ele>611.055176</ele>
        <time>2011-11-20T13:01:38Z</time>
      </trkpt>
      <trkpt lat="42.99996" lon="-0.41457">
        <ele>610.09375</ele>
        <time>2011-11-20T13:02:17Z</time>
      </trkpt>
      <trkpt lat="42.99996" lon="-0.41456">
        <ele>610.574463</ele>
        <time>2011-11-20T13:02:44Z</time>
      </trkpt>
      <trkpt lat="42.99999" lon="-0.41454">
        <ele>610.09375</ele>
        <time>2011-11-20T13:02:49Z</time>
      </trkpt>
      <trkpt lat="42.99992" lon="-0.41443">
        <ele>609.132568</ele>
        <time>2011-11-20T13:03:04Z</time>
      </trkpt>
      <trkpt lat="42.99989" lon="-0.41438">
        <ele>607.690674</ele>
        <time>2011-11-20T13:03:10Z</time>
      </trkpt>
      <trkpt lat="42.99984" lon="-0.41428">
        <ele>604.326172</ele>
        <time>2011-11-20T13:03:23Z</time>
      </trkpt>
      <trkpt lat="42.99982" lon="-0.41425">
        <ele>603.364502</ele>
        <time>2011-11-20T13:03:27Z</time>
      </trkpt>
      <trkpt lat="42.99974" lon="-0.41409">
        <ele>600</ele>
        <time>2011-11-20T13:03:47Z</time>
      </trkpt>
      <trkpt lat="42.99972" lon="-0.41401">
        <ele>599.519287</ele>
        <time>2011-11-20T13:03:59Z</time>
      </trkpt>
      <trkpt lat="42.99969" lon="-0.41396">
        <ele>599.038574</ele>
        <time>2011-11-20T13:04:15Z</time>
      </trkpt>
      <trkpt lat="42.99968" lon="-0.4139">
        <ele>598.557861</ele>
        <time>2011-11-20T13:04:20Z</time>
      </trkpt>
      <trkpt lat="42.99955" lon="-0.41368">
        <ele>596.154785</ele>
        <time>2011-11-20T13:04:40Z</time>
      </trkpt>
      <trkpt lat="42.99955" lon="-0.41367">
        <ele>596.154785</ele>
        <time>2011-11-20T13:04:41Z</time>
      </trkpt>
      <trkpt lat="42.99946" lon="-0.4135">
        <ele>597.115967</ele>
        <time>2011-11-20T13:04:58Z</time>
      </trkpt>
      <trkpt lat="42.99942" lon="-0.41347">
        <ele>597.59668</ele>
        <time>2011-11-20T13:05:02Z</time>
      </trkpt>
      <trkpt lat="42.99934" lon="-0.41344">
        <ele>599.519287</ele>
        <time>2011-11-20T13:05:10Z</time>
      </trkpt>
      <trkpt lat="42.99922" lon="-0.41337">
        <ele>600.961182</ele>
        <time>2011-11-20T13:05:26Z</time>
      </trkpt>
      <trkpt lat="42.99917" lon="-0.41335">
        <ele>600</ele>
        <time>2011-11-20T13:05:35Z</time>
      </trkpt>
      <trkpt lat="42.99918" lon="-0.41335">
        <ele>600.480713</ele>
        <time>2011-11-20T13:05:52Z</time>
      </trkpt>
      <trkpt lat="42.99907" lon="-0.41336">
        <ele>597.59668</ele>
        <time>2011-11-20T13:06:08Z</time>
      </trkpt>
      <trkpt lat="42.99904" lon="-0.41338">
        <ele>597.115967</ele>
        <time>2011-11-20T13:06:11Z</time>
      </trkpt>
      <trkpt lat="42.99897" lon="-0.41339">
        <ele>596.154785</ele>
        <time>2011-11-20T13:06:17Z</time>
      </trkpt>
      <trkpt lat="42.99881" lon="-0.41344">
        <ele>595.674072</ele>
        <time>2011-11-20T13:06:36Z</time>
      </trkpt>
      <trkpt lat="42.99858" lon="-0.41357">
        <ele>595.674072</ele>
        <time>2011-11-20T13:06:56Z</time>
      </trkpt>
      <trkpt lat="42.99856" lon="-0.41358">
        <ele>595.674072</ele>
        <time>2011-11-20T13:06:57Z</time>
      </trkpt>
      <trkpt lat="42.99834" lon="-0.41374">
        <ele>596.154785</ele>
        <time>2011-11-20T13:07:20Z</time>
      </trkpt>
      <trkpt lat="42.99817" lon="-0.41373">
        <ele>598.077393</ele>
        <time>2011-11-20T13:07:38Z</time>
      </trkpt>
      <trkpt lat="42.99826" lon="-0.41375">
        <ele>597.115967</ele>
        <time>2011-11-20T13:07:49Z</time>
      </trkpt>
      <trkpt lat="42.99841" lon="-0.41364">
        <ele>595.674072</ele>
        <time>2011-11-20T13:08:04Z</time>
      </trkpt>
      <trkpt lat="42.99856" lon="-0.41355">
        <ele>595.674072</ele>
        <time>2011-11-20T13:08:20Z</time>
      </trkpt>
      <trkpt lat="42.99867" lon="-0.41349">
        <ele>596.154785</ele>
        <time>2011-11-20T13:08:30Z</time>
      </trkpt>
      <trkpt lat="42.99874" lon="-0.41347">
        <ele>595.674072</ele>
        <time>2011-11-20T13:08:35Z</time>
      </trkpt>
      <trkpt lat="42.99883" lon="-0.41352">
        <ele>595.193359</ele>
        <time>2011-11-20T13:08:47Z</time>
      </trkpt>
      <trkpt lat="42.99883" lon="-0.41354">
        <ele>595.193359</ele>
        <time>2011-11-20T13:08:48Z</time>
      </trkpt>
      <trkpt lat="42.99892" lon="-0.41376">
        <ele>590.867432</ele>
        <time>2011-11-20T13:09:06Z</time>
      </trkpt>
      <trkpt lat="42.99896" lon="-0.41379">
        <ele>589.90625</ele>
        <time>2011-11-20T13:09:10Z</time>
      </trkpt>
      <trkpt lat="42.99899" lon="-0.41385">
        <ele>588.945068</ele>
        <time>2011-11-20T13:09:16Z</time>
      </trkpt>
      <trkpt lat="42.99903" lon="-0.414">
        <ele>586.060791</ele>
        <time>2011-11-20T13:09:29Z</time>
      </trkpt>
      <trkpt lat="42.99903" lon="-0.41409">
        <ele>584.618896</ele>
        <time>2011-11-20T13:09:36Z</time>
      </trkpt>
      <trkpt lat="42.99903" lon="-0.41421">
        <ele>582.215576</ele>
        <time>2011-11-20T13:09:44Z</time>
      </trkpt>
      <trkpt lat="42.99905" lon="-0.41426">
        <ele>581.254395</ele>
        <time>2011-11-20T13:09:48Z</time>
      </trkpt>
      <trkpt lat="42.99907" lon="-0.41447">
        <ele>579.331543</ele>
        <time>2011-11-20T13:10:07Z</time>
      </trkpt>
      <trkpt lat="42.99907" lon="-0.41448">
        <ele>579.331543</ele>
        <time>2011-11-20T13:10:08Z</time>
      </trkpt>
      <trkpt lat="42.99924" lon="-0.41453">
        <ele>578.370361</ele>
        <time>2011-11-20T13:10:25Z</time>
      </trkpt>
      <trkpt lat="42.99925" lon="-0.41453">
        <ele>576.928467</ele>
        <time>2011-11-20T13:10:36Z</time>
      </trkpt>
      <trkpt lat="42.9992" lon="-0.41455">
        <ele>577.40918</ele>
        <time>2011-11-20T13:12:04Z</time>
      </trkpt>
      <trkpt lat="42.99916" lon="-0.41461">
        <ele>576.928467</ele>
        <time>2011-11-20T13:13:24Z</time>
      </trkpt>
      <trkpt lat="42.99918" lon="-0.41459">
        <ele>576.928467</ele>
        <time>2011-11-20T13:13:48Z</time>
      </trkpt>
    </trkseg>
  </trk>
</gpx>